Observation data for Weinert on 01/18/2019      Previous  Date  Next       Current Mesonet Observations  Soil Data  Daily Summary Page  Observations in Plain Language
KWE1 180600Z 14008KT 08/05 A3003 RMK A01 T00770046  RH  081%=      5-min Rain = 0
KWE1 180601Z 14008KT 08/05 A3003 RMK A01 T00770046  RH  081%=      5-min Rain = 0
KWE1 180602Z 14008KT 08/05 A3003 RMK A01 T00770046  RH  081%=      5-min Rain = 0
KWE1 180603Z 14009KT 08/05 A3003 RMK A01 T00770046  RH  081%=      5-min Rain = 0
KWE1 180604Z 13009KT 08/05 A3003 RMK A01 T00780047  RH  081%=      5-min Rain = 0
KWE1 180605Z 14009KT 08/05 A3003 RMK A01 T00790047  RH  080%=      5-min Rain = 0
KWE1 180606Z 13008KT 08/05 A3003 RMK A01 T00790047  RH  080%=      5-min Rain = 0
KWE1 180607Z 13008KT 08/05 A3003 RMK A01 T00790047  RH  080%=      5-min Rain = 0
KWE1 180608Z 14008KT 08/05 A3003 RMK A01 T00790047  RH  080%=      5-min Rain = 0
KWE1 180609Z 14009KT 08/05 A3003 RMK A01 T00790047  RH  080%=      5-min Rain = 0
KWE1 180610Z 14008KT 08/05 A3003 RMK A01 T00780047  RH  081%=      5-min Rain = 0
KWE1 180611Z 14009KT 08/05 A3003 RMK A01 T00780047  RH  081%=      5-min Rain = 0
KWE1 180612Z 14008KT 08/05 A3003 RMK A01 T00780047  RH  080%=      5-min Rain = 0
KWE1 180613Z 14009KT 08/05 A3003 RMK A01 T00780046  RH  080%=      5-min Rain = 0
KWE1 180614Z 14008KT 08/05 A3003 RMK A01 T00780047  RH  081%=      5-min Rain = 0
KWE1 180615Z 14008KT 08/05 A3003 RMK A01 T00780047  RH  081%=      5-min Rain = 0
KWE1 180616Z 14007KT 08/05 A3003 RMK A01 T00780047  RH  081%=      5-min Rain = 0
KWE1 180617Z 14008KT 08/05 A3003 RMK A01 T00780047  RH  081%=      5-min Rain = 0
KWE1 180618Z 14008KT 08/05 A3003 RMK A01 T00780047  RH  081%=      5-min Rain = 0
KWE1 180619Z 14007KT 08/05 A3003 RMK A01 T00780047  RH  081%=      5-min Rain = 0
KWE1 180620Z 14007KT 08/05 A3003 RMK A01 T00770046  RH  081%=      5-min Rain = 0
KWE1 180621Z 14007KT 08/05 A3003 RMK A01 T00770046  RH  081%=      5-min Rain = 0
KWE1 180622Z 14007KT 08/05 A3003 RMK A01 T00770046  RH  081%=      5-min Rain = 0
KWE1 180623Z 14007KT 08/05 A3003 RMK A01 T00770046  RH  081%=      5-min Rain = 0
KWE1 180624Z 15007KT 08/05 A3003 RMK A01 T00760046  RH  081%=      5-min Rain = 0
KWE1 180625Z 15006KT 08/05 A3003 RMK A01 T00760046  RH  081%=      5-min Rain = 0
KWE1 180626Z 15006KT 08/05 A3003 RMK A01 T00760046  RH  081%=      5-min Rain = 0
KWE1 180627Z 15006KT 08/05 A3002 RMK A01 T00760046  RH  081%=      5-min Rain = 0
KWE1 180628Z 15007KT 08/05 A3002 RMK A01 T00760046  RH  081%=      5-min Rain = 0
KWE1 180629Z 16006KT 08/05 A3002 RMK A01 T00750045  RH  081%=      5-min Rain = 0
KWE1 180630Z 16005KT 08/05 A3002 RMK A01 T00750045  RH  081%=      5-min Rain = 0
KWE1 180631Z 16006KT 07/04 A3002 RMK A01 T00740044  RH  082%=      5-min Rain = 0
KWE1 180632Z 16006KT 07/04 A3002 RMK A01 T00730044  RH  082%=      5-min Rain = 0
KWE1 180633Z 16007KT 07/04 A3002 RMK A01 T00730044  RH  082%=      5-min Rain = 0
KWE1 180634Z 16008KT 07/04 A3002 RMK A01 T00720044  RH  082%=      5-min Rain = 0
KWE1 180635Z 16007KT 07/04 A3002 RMK A01 T00720044  RH  082%=      5-min Rain = 0
KWE1 180636Z 16006KT 07/04 A3002 RMK A01 T00710044  RH  083%=      5-min Rain = 0
KWE1 180637Z 16006KT 07/04 A3002 RMK A01 T00710044  RH  083%=      5-min Rain = 0
KWE1 180638Z 16008KT 07/04 A3002 RMK A01 T00710044  RH  083%=      5-min Rain = 0
KWE1 180639Z 16008KT 07/04 A3002 RMK A01 T00700043  RH  083%=      5-min Rain = 0
KWE1 180640Z 16007KT 07/04 A3002 RMK A01 T00700044  RH  083%=      5-min Rain = 0
KWE1 180641Z 16007KT 07/04 A3002 RMK A01 T00700044  RH  083%=      5-min Rain = 0
KWE1 180642Z 16008KT 07/04 A3002 RMK A01 T00710044  RH  083%=      5-min Rain = 0
KWE1 180643Z 16008KT 07/04 A3002 RMK A01 T00710044  RH  083%=      5-min Rain = 0
KWE1 180644Z 16007KT 07/04 A3002 RMK A01 T00710044  RH  083%=      5-min Rain = 0
KWE1 180645Z 16008KT 07/04 A3002 RMK A01 T00710043  RH  083%=      5-min Rain = 0
KWE1 180646Z 16007KT 07/04 A3002 RMK A01 T00710044  RH  083%=      5-min Rain = 0
KWE1 180647Z 16007KT 07/04 A3002 RMK A01 T00710043  RH  082%=      5-min Rain = 0
KWE1 180648Z 16006KT 07/04 A3002 RMK A01 T00710044  RH  083%=      5-min Rain = 0
KWE1 180649Z 16007KT 07/04 A3001 RMK A01 T00700043  RH  083%=      5-min Rain = 0
KWE1 180650Z 16007KT 07/04 A3001 RMK A01 T00700043  RH  083%=      5-min Rain = 0
KWE1 180651Z 15007KT 07/04 A3001 RMK A01 T00700044  RH  083%=      5-min Rain = 0
KWE1 180652Z 16008KT 07/04 A3001 RMK A01 T00700044  RH  083%=      5-min Rain = 0
KWE1 180653Z 15006KT 07/04 A3001 RMK A01 T00710044  RH  083%=      5-min Rain = 0
KWE1 180654Z 16007KT 07/04 A3001 RMK A01 T00710044  RH  083%=      5-min Rain = 0
KWE1 180655Z 16007KT 07/04 A3001 RMK A01 T00710044  RH  083%=      5-min Rain = 0
KWE1 180656Z 16007KT 07/04 A3001 RMK A01 T00710044  RH  083%=      5-min Rain = 0
KWE1 180657Z 16007KT 07/04 A3001 RMK A01 T00710044  RH  083%=      5-min Rain = 0
KWE1 180658Z 15007KT 07/04 A3001 RMK A01 T00710044  RH  083%=      5-min Rain = 0
KWE1 180659Z 15008KT 07/04 A3001 RMK A01 T00710044  RH  083%=      5-min Rain = 0
KWE1 180700Z 16008KT 07/04 A3001 RMK A01 T00710044  RH  083%=      5-min Rain = 0
KWE1 180701Z 15006KT 07/04 A3001 RMK A01 T00720044  RH  083%=      5-min Rain = 0
KWE1 180702Z 15006KT 07/05 A3001 RMK A01 T00720045  RH  083%=      5-min Rain = 0
KWE1 180703Z 16006KT 07/05 A3001 RMK A01 T00720045  RH  083%=      5-min Rain = 0
KWE1 180704Z 16007KT 07/04 A3001 RMK A01 T00720044  RH  083%=      5-min Rain = 0
KWE1 180705Z 15006KT 07/04 A3001 RMK A01 T00720044  RH  082%=      5-min Rain = 0
KWE1 180706Z 15007KT 07/04 A3001 RMK A01 T00720044  RH  082%=      5-min Rain = 0
KWE1 180707Z 16007KT 07/04 A3001 RMK A01 T00720044  RH  082%=      5-min Rain = 0
KWE1 180708Z 15007KT 07/05 A3001 RMK A01 T00720045  RH  082%=      5-min Rain = 0
KWE1 180709Z 16006KT 07/05 A3001 RMK A01 T00730045  RH  082%=      5-min Rain = 0
KWE1 180710Z 16006KT 07/05 A3001 RMK A01 T00720045  RH  082%=      5-min Rain = 0
KWE1 180711Z 16008KT 07/05 A3001 RMK A01 T00730045  RH  082%=      5-min Rain = 0
KWE1 180712Z 16007KT 07/05 A3001 RMK A01 T00730045  RH  082%=      5-min Rain = 0
KWE1 180713Z 16006KT 07/05 A3001 RMK A01 T00740045  RH  082%=      5-min Rain = 0
KWE1 180714Z 16006KT 07/05 A3001 RMK A01 T00740045  RH  082%=      5-min Rain = 0
KWE1 180715Z 16007KT 07/05 A3001 RMK A01 T00740045  RH  082%=      5-min Rain = 0
KWE1 180716Z 16006KT 07/05 A30 RMK A01 T00740045  RH  082%=      5-min Rain = 0
KWE1 180717Z 16006KT 08/05 A30 RMK A01 T00750045  RH  082%=      5-min Rain = 0
KWE1 180718Z 16007KT 08/05 A30 RMK A01 T00750045  RH  082%=      5-min Rain = 0
KWE1 180719Z 17007KT 08/05 A30 RMK A01 T00750045  RH  082%=      5-min Rain = 0
KWE1 180720Z 17006KT 08/05 A3001 RMK A01 T00760046  RH  082%=      5-min Rain = 0
KWE1 180721Z 16007KT 08/05 A3001 RMK A01 T00760046  RH  081%=      5-min Rain = 0
KWE1 180722Z 16006KT 08/05 A3001 RMK A01 T00760046  RH  081%=      5-min Rain = 0
KWE1 180723Z 17007KT 08/05 A30 RMK A01 T00770046  RH  081%=      5-min Rain = 0
KWE1 180724Z 17007KT 08/05 A3001 RMK A01 T00770046  RH  081%=      5-min Rain = 0
KWE1 180725Z 17007KT 08/05 A3001 RMK A01 T00770046  RH  081%=      5-min Rain = 0
KWE1 180726Z 17007KT 08/05 A3001 RMK A01 T00770046  RH  081%=      5-min Rain = 0
KWE1 180727Z 17007KT 08/05 A3001 RMK A01 T00770046  RH  081%=      5-min Rain = 0
KWE1 180728Z 17008KT 08/05 A3001 RMK A01 T00760045  RH  081%=      5-min Rain = 0
KWE1 180729Z 17009KT 08/05 A3001 RMK A01 T00760046  RH  081%=      5-min Rain = 0
KWE1 180730Z 17009KT 08/05 A30 RMK A01 T00770047  RH  081%=      5-min Rain = 0
KWE1 180731Z 17010KT 08/05 A30 RMK A01 T00780046  RH  081%=      5-min Rain = 0
KWE1 180732Z 16007KT 08/05 A30 RMK A01 T00780046  RH  081%=      5-min Rain = 0
KWE1 180733Z 17008KT 08/05 A30 RMK A01 T00780046  RH  080%=      5-min Rain = 0
KWE1 180734Z 17008KT 08/05 A30 RMK A01 T00780046  RH  081%=      5-min Rain = 0
KWE1 180735Z 17007KT 08/05 A30 RMK A01 T00780047  RH  080%=      5-min Rain = 0
KWE1 180736Z 17005KT 08/05 A30 RMK A01 T00780046  RH  080%=      5-min Rain = 0
KWE1 180737Z 18005KT 08/05 A30 RMK A01 T00770045  RH  080%=      5-min Rain = 0
KWE1 180738Z 17006KT 08/05 A30 RMK A01 T00760045  RH  081%=      5-min Rain = 0
KWE1 180739Z 17006KT 08/05 A30 RMK A01 T00750045  RH  081%=      5-min Rain = 0
KWE1 180740Z 18005KT 07/05 A30 RMK A01 T00740045  RH  082%=      5-min Rain = 0
KWE1 180741Z 18004KT 07/04 A30 RMK A01 T00730044  RH  082%=      5-min Rain = 0
KWE1 180742Z 18005KT 07/04 A30 RMK A01 T00720044  RH  082%=      5-min Rain = 0
KWE1 180743Z 18005KT 07/04 A30 RMK A01 T00710043  RH  083%=      5-min Rain = 0
KWE1 180744Z 18005KT 07/04 A30 RMK A01 T00710044  RH  083%=      5-min Rain = 0
KWE1 180745Z 17005KT 07/04 A30 RMK A01 T00710044  RH  083%=      5-min Rain = 0
KWE1 180746Z 18005KT 07/04 A30 RMK A01 T00710044  RH  083%=      5-min Rain = 0
KWE1 180747Z 17005KT 07/04 A30 RMK A01 T00710044  RH  083%=      5-min Rain = 0
KWE1 180748Z 17005KT 07/04 A30 RMK A01 T00710044  RH  083%=      5-min Rain = 0
KWE1 180749Z 17005KT 07/04 A2999 RMK A01 T00700044  RH  084%=      5-min Rain = 0
KWE1 180750Z 17005KT 07/04 A2999 RMK A01 T00690044  RH  084%=      5-min Rain = 0
KWE1 180751Z 18005KT 07/04 A2999 RMK A01 T00700044  RH  084%=      5-min Rain = 0
KWE1 180752Z 17005KT 07/04 A2999 RMK A01 T00690044  RH  084%=      5-min Rain = 0
KWE1 180753Z 18004KT 07/04 A2999 RMK A01 T00690043  RH  084%=      5-min Rain = 0
KWE1 180754Z 18004KT 07/04 A2999 RMK A01 T00680043  RH  084%=      5-min Rain = 0
KWE1 180755Z 18003KT 07/04 A2999 RMK A01 T00670042  RH  084%=      5-min Rain = 0
KWE1 180756Z 17004KT 07/04 A2999 RMK A01 T00670042  RH  084%=      5-min Rain = 0
KWE1 180757Z 17004KT 07/04 A2999 RMK A01 T00660042  RH  084%=      5-min Rain = 0
KWE1 180758Z 17005KT 07/04 A2999 RMK A01 T00660043  RH  085%=      5-min Rain = 0
KWE1 180759Z 17006KT 07/04 A2999 RMK A01 T00660042  RH  085%=      5-min Rain = 0
KWE1 180800Z 17006KT 07/04 A2999 RMK A01 T00660042  RH  085%=      5-min Rain = 0
KWE1 180801Z 17007KT 07/04 A2999 RMK A01 T00650042  RH  085%=      5-min Rain = 0
KWE1 180802Z 17007KT 07/04 A2999 RMK A01 T00660043  RH  085%=      5-min Rain = 0
KWE1 180803Z 18006KT 07/04 A2999 RMK A01 T00650043  RH  085%=      5-min Rain = 0
KWE1 180804Z 17005KT 07/04 A2999 RMK A01 T00660043  RH  085%=      5-min Rain = 0
KWE1 180805Z 17004KT 07/04 A2999 RMK A01 T00660042  RH  085%=      5-min Rain = 0
KWE1 180806Z 17005KT 07/04 A2998 RMK A01 T00650042  RH  085%=      5-min Rain = 0
KWE1 180807Z 17005KT 07/04 A2998 RMK A01 T00650042  RH  085%=      5-min Rain = 0
KWE1 180808Z 17005KT 07/04 A2998 RMK A01 T00650042  RH  085%=      5-min Rain = 0
KWE1 180809Z 16005KT 06/04 A2998 RMK A01 T00640042  RH  085%=      5-min Rain = 0
KWE1 180810Z 17006KT 06/04 A2998 RMK A01 T00640042  RH  085%=      5-min Rain = 0
KWE1 180811Z 17006KT 07/04 A2998 RMK A01 T00650042  RH  086%=      5-min Rain = 0
KWE1 180812Z 17005KT 06/04 A2998 RMK A01 T00640042  RH  086%=      5-min Rain = 0
KWE1 180813Z 17006KT 06/04 A2998 RMK A01 T00640042  RH  085%=      5-min Rain = 0
KWE1 180814Z 17006KT 06/04 A2998 RMK A01 T00640042  RH  086%=      5-min Rain = 0
KWE1 180815Z 17005KT 06/04 A2998 RMK A01 T00640042  RH  086%=      5-min Rain = 0
KWE1 180816Z 17007KT 06/04 A2998 RMK A01 T00640042  RH  086%=      5-min Rain = 0
KWE1 180817Z 17006KT 06/04 A2998 RMK A01 T00640042  RH  086%=      5-min Rain = 0
KWE1 180818Z 17007KT 06/04 A2998 RMK A01 T00640042  RH  086%=      5-min Rain = 0
KWE1 180819Z 17006KT 06/04 A2998 RMK A01 T00640042  RH  086%=      5-min Rain = 0
KWE1 180820Z 17005KT 06/04 A2998 RMK A01 T00640042  RH  086%=      5-min Rain = 0
KWE1 180821Z 17005KT 06/04 A2998 RMK A01 T00640042  RH  086%=      5-min Rain = 0
KWE1 180822Z 16006KT 06/04 A2998 RMK A01 T00640042  RH  086%=      5-min Rain = 0
KWE1 180823Z 16005KT 06/04 A2998 RMK A01 T00640041  RH  086%=      5-min Rain = 0
KWE1 180824Z 16005KT 06/04 A2998 RMK A01 T00640042  RH  086%=      5-min Rain = 0
KWE1 180825Z 16006KT 06/04 A2998 RMK A01 T00630041  RH  086%=      5-min Rain = 0
KWE1 180826Z 16006KT 06/04 A2998 RMK A01 T00630041  RH  086%=      5-min Rain = 0
KWE1 180827Z 17007KT 06/04 A2998 RMK A01 T00630042  RH  086%=      5-min Rain = 0
KWE1 180828Z 17006KT 06/04 A2998 RMK A01 T00630041  RH  086%=      5-min Rain = 0
KWE1 180829Z 17007KT 06/04 A2998 RMK A01 T00630041  RH  086%=      5-min Rain = 0
KWE1 180830Z 17006KT 06/04 A2998 RMK A01 T00630041  RH  086%=      5-min Rain = 0
KWE1 180831Z 17006KT 06/04 A2998 RMK A01 T00630041  RH  086%=      5-min Rain = 0
KWE1 180832Z 17006KT 06/04 A2998 RMK A01 T00620041  RH  086%=      5-min Rain = 0
KWE1 180833Z 17006KT 06/04 A2998 RMK A01 T00620041  RH  086%=      5-min Rain = 0
KWE1 180834Z 18006KT 06/04 A2998 RMK A01 T00620041  RH  086%=      5-min Rain = 0
KWE1 180835Z 17006KT 06/04 A2998 RMK A01 T00620041  RH  086%=      5-min Rain = 0
KWE1 180836Z 17007KT 06/04 A2998 RMK A01 T00620041  RH  086%=      5-min Rain = 0
KWE1 180837Z 17007KT 06/04 A2998 RMK A01 T00640043  RH  087%=      5-min Rain = 0
KWE1 180838Z 18007KT 07/04 A2998 RMK A01 T00650044  RH  086%=      5-min Rain = 0
KWE1 180839Z 17008KT 07/04 A2998 RMK A01 T00660044  RH  086%=      5-min Rain = 0
KWE1 180840Z 17008KT 07/05 A2998 RMK A01 T00680045  RH  085%=      5-min Rain = 0
KWE1 180841Z 17008KT 07/05 A2997 RMK A01 T00690045  RH  084%=      5-min Rain = 0
KWE1 180842Z 17009KT 07/05 A2998 RMK A01 T00700045  RH  084%=      5-min Rain = 0
KWE1 180843Z 18009KT 07/04 A2997 RMK A01 T00710044  RH  083%=      5-min Rain = 0
KWE1 180844Z 17009KT 07/04 A2997 RMK A01 T00710044  RH  083%=      5-min Rain = 0
KWE1 180845Z 18009KT 07/04 A2997 RMK A01 T00710044  RH  083%=      5-min Rain = 0
KWE1 180846Z 18009KT 07/04 A2997 RMK A01 T00720044  RH  082%=      5-min Rain = 0
KWE1 180847Z 18009KT 07/04 A2997 RMK A01 T00720044  RH  082%=      5-min Rain = 0
KWE1 180848Z 18009KT 07/04 A2997 RMK A01 T00720043  RH  082%=      5-min Rain = 0
KWE1 180849Z 18009KT 07/04 A2997 RMK A01 T00720044  RH  082%=      5-min Rain = 0
KWE1 180850Z 18010KT 07/04 A2997 RMK A01 T00720043  RH  082%=      5-min Rain = 0
KWE1 180851Z 18010KT 07/04 A2997 RMK A01 T00730044  RH  082%=      5-min Rain = 0
KWE1 180852Z 18008KT 07/04 A2997 RMK A01 T00740044  RH  081%=      5-min Rain = 0
KWE1 180853Z 18009KT 08/04 A2997 RMK A01 T00750044  RH  081%=      5-min Rain = 0
KWE1 180854Z 18007KT 08/04 A2997 RMK A01 T00760044  RH  080%=      5-min Rain = 0
KWE1 180855Z 18008KT 08/04 A2997 RMK A01 T00760044  RH  080%=      5-min Rain = 0
KWE1 180856Z 17009KT 08/04 A2997 RMK A01 T00760044  RH  080%=      5-min Rain = 0
KWE1 180857Z 18011KT 08/04 A2997 RMK A01 T00760044  RH  080%=      5-min Rain = 0
KWE1 180858Z 17010KT 08/05 A2997 RMK A01 T00770045  RH  080%=      5-min Rain = 0
KWE1 180859Z 17010KT 08/04 A2997 RMK A01 T00780044  RH  079%=      5-min Rain = 0
KWE1 180900Z 17010KT 08/04 A2997 RMK A01 T00770044  RH  079%=      5-min Rain = 0
KWE1 180901Z 18009KT 08/04 A2997 RMK A01 T00780044  RH  079%=      5-min Rain = 0
KWE1 180902Z 17009KT 08/05 A2997 RMK A01 T00790045  RH  079%=      5-min Rain = 0
KWE1 180903Z 17010KT 08/05 A2997 RMK A01 T00790045  RH  079%=      5-min Rain = 0
KWE1 180904Z 18009KT 08/04 A2997 RMK A01 T00780044  RH  079%=      5-min Rain = 0
KWE1 180905Z 18008KT 08/04 A2997 RMK A01 T00790044  RH  079%=      5-min Rain = 0
KWE1 180906Z 18010KT 08/04 A2997 RMK A01 T00790044  RH  079%=      5-min Rain = 0
KWE1 180907Z 18009KT 08/04 A2997 RMK A01 T00780044  RH  079%=      5-min Rain = 0
KWE1 180908Z 18008KT 08/04 A2997 RMK A01 T00780044  RH  079%=      5-min Rain = 0
KWE1 180909Z 18008KT 08/04 A2997 RMK A01 T00780044  RH  079%=      5-min Rain = 0
KWE1 180910Z 19007KT 08/04 A2997 RMK A01 T00770043  RH  079%=      5-min Rain = 0
KWE1 180911Z 18007KT 08/04 A2997 RMK A01 T00760043  RH  080%=      5-min Rain = 0
KWE1 180912Z 18007KT 08/04 A2997 RMK A01 T00760044  RH  080%=      5-min Rain = 0
KWE1 180913Z 18007KT 08/04 A2997 RMK A01 T00760043  RH  080%=      5-min Rain = 0
KWE1 180914Z 19009KT 08/04 A2997 RMK A01 T00770044  RH  080%=      5-min Rain = 0
KWE1 180915Z 18008KT 08/04 A2997 RMK A01 T00780044  RH  079%=      5-min Rain = 0
KWE1 180916Z 18007KT 08/04 A2997 RMK A01 T00780044  RH  079%=      5-min Rain = 0
KWE1 180917Z 18008KT 08/04 A2997 RMK A01 T00780044  RH  079%=      5-min Rain = 0
KWE1 180918Z 18008KT 08/04 A2997 RMK A01 T00770044  RH  079%=      5-min Rain = 0
KWE1 180919Z 18008KT 08/04 A2997 RMK A01 T00770043  RH  079%=      5-min Rain = 0
KWE1 180920Z 18008KT 08/04 A2997 RMK A01 T00760043  RH  080%=      5-min Rain = 0
KWE1 180921Z 18009KT 08/04 A2997 RMK A01 T00760043  RH  080%=      5-min Rain = 0
KWE1 180922Z 18007KT 08/05 A2997 RMK A01 T00780045  RH  080%=      5-min Rain = 0
KWE1 180923Z 18006KT 08/04 A2997 RMK A01 T00780044  RH  079%=      5-min Rain = 0
KWE1 180924Z 18007KT 08/04 A2997 RMK A01 T00780044  RH  079%=      5-min Rain = 0
KWE1 180925Z 18006KT 08/04 A2997 RMK A01 T00770043  RH  079%=      5-min Rain = 0
KWE1 180926Z 18007KT 08/04 A2997 RMK A01 T00770043  RH  079%=      5-min Rain = 0
KWE1 180927Z 18007KT 08/04 A2996 RMK A01 T00760043  RH  079%=      5-min Rain = 0
KWE1 180928Z 17007KT 08/04 A2996 RMK A01 T00760043  RH  080%=      5-min Rain = 0
KWE1 180929Z 18007KT 08/04 A2997 RMK A01 T00760043  RH  080%=      5-min Rain = 0
KWE1 180930Z 18008KT 08/04 A2997 RMK A01 T00750043  RH  080%=      5-min Rain = 0
KWE1 180931Z 18008KT 08/04 A2997 RMK A01 T00750043  RH  080%=      5-min Rain = 0
KWE1 180932Z 18008KT 08/04 A2996 RMK A01 T00760044  RH  080%=      5-min Rain = 0
KWE1 180933Z 18009KT 08/04 A2996 RMK A01 T00760044  RH  080%=      5-min Rain = 0
KWE1 180934Z 18008KT 08/04 A2996 RMK A01 T00770044  RH  080%=      5-min Rain = 0
KWE1 180935Z 18008KT 08/04 A2996 RMK A01 T00760044  RH  080%=      5-min Rain = 0
KWE1 180936Z 18008KT 08/04 A2996 RMK A01 T00760044  RH  080%=      5-min Rain = 0
KWE1 180937Z 18009KT 08/04 A2996 RMK A01 T00760044  RH  080%=      5-min Rain = 0
KWE1 180938Z 18008KT 08/04 A2996 RMK A01 T00760044  RH  080%=      5-min Rain = 0
KWE1 180939Z 17008KT 08/04 A2996 RMK A01 T00760044  RH  080%=      5-min Rain = 0
KWE1 180940Z 18008KT 08/04 A2996 RMK A01 T00760044  RH  080%=      5-min Rain = 0
KWE1 180941Z 18008KT 08/04 A2996 RMK A01 T00760044  RH  080%=      5-min Rain = 0
KWE1 180942Z 18008KT 08/04 A2996 RMK A01 T00770044  RH  080%=      5-min Rain = 0
KWE1 180943Z 18008KT 08/05 A2996 RMK A01 T00770045  RH  080%=      5-min Rain = 0
KWE1 180944Z 17007KT 08/05 A2996 RMK A01 T00780045  RH  079%=      5-min Rain = 0
KWE1 180945Z 17007KT 08/04 A2996 RMK A01 T00780044  RH  079%=      5-min Rain = 0
KWE1 180946Z 17008KT 08/04 A2996 RMK A01 T00780044  RH  079%=      5-min Rain = 0
KWE1 180947Z 18007KT 08/04 A2996 RMK A01 T00780044  RH  079%=      5-min Rain = 0
KWE1 180948Z 17008KT 08/04 A2996 RMK A01 T00780044  RH  079%=      5-min Rain = 0
KWE1 180949Z 17009KT 08/04 A2996 RMK A01 T00780044  RH  079%=      5-min Rain = 0
KWE1 180950Z 17010KT 08/05 A2996 RMK A01 T00780045  RH  080%=      5-min Rain = 0
KWE1 180951Z 17008KT 08/05 A2996 RMK A01 T00790045  RH  079%=      5-min Rain = 0
KWE1 180952Z 17009KT 08/05 A2996 RMK A01 T00790045  RH  079%=      5-min Rain = 0
KWE1 180953Z 18009KT 08/05 A2996 RMK A01 T00790045  RH  079%=      5-min Rain = 0
KWE1 180954Z 17008KT 08/05 A2995 RMK A01 T00790045  RH  079%=      5-min Rain = 0
KWE1 180955Z 17009KT 08/05 A2995 RMK A01 T00790045  RH  079%=      5-min Rain = 0
KWE1 180956Z 17009KT 08/05 A2995 RMK A01 T00790045  RH  079%=      5-min Rain = 0
KWE1 180957Z 18010KT 08/05 A2995 RMK A01 T00780045  RH  079%=      5-min Rain = 0
KWE1 180958Z 17010KT 08/05 A2995 RMK A01 T00780045  RH  079%=      5-min Rain = 0
KWE1 180959Z 17009KT 08/04 A2995 RMK A01 T00770044  RH  079%=      5-min Rain = 0
KWE1 181000Z 17009KT 08/04 A2995 RMK A01 T00770044  RH  080%=      5-min Rain = 0
KWE1 181001Z 17010KT 08/04 A2995 RMK A01 T00770044  RH  080%=      5-min Rain = 0
KWE1 181002Z 17009KT 08/04 A2994 RMK A01 T00760044  RH  080%=      5-min Rain = 0
KWE1 181003Z 18010KT 08/04 A2994 RMK A01 T00760044  RH  080%=      5-min Rain = 0
KWE1 181004Z 17010KT 08/04 A2994 RMK A01 T00760044  RH  080%=      5-min Rain = 0
KWE1 181005Z 18009KT 08/04 A2994 RMK A01 T00760044  RH  081%=      5-min Rain = 0
KWE1 181006Z 18010KT 08/04 A2994 RMK A01 T00760044  RH  080%=      5-min Rain = 0
KWE1 181007Z 18010KT 08/05 A2994 RMK A01 T00760045  RH  080%=      5-min Rain = 0
KWE1 181008Z 18010KT 08/04 A2994 RMK A01 T00760044  RH  080%=      5-min Rain = 0
KWE1 181009Z 18010KT 08/04 A2994 RMK A01 T00760044  RH  081%=      5-min Rain = 0
KWE1 181010Z 18010KT 08/04 A2994 RMK A01 T00750044  RH  081%=      5-min Rain = 0
KWE1 181011Z 18011KT 08/04 A2994 RMK A01 T00750044  RH  081%=      5-min Rain = 0
KWE1 181012Z 18010KT 08/04 A2994 RMK A01 T00750044  RH  081%=      5-min Rain = 0
KWE1 181013Z 18011KT 08/04 A2994 RMK A01 T00750044  RH  080%=      5-min Rain = 0
KWE1 181014Z 18011KT 08/04 A2993 RMK A01 T00760044  RH  081%=      5-min Rain = 0
KWE1 181015Z 17010KT 08/05 A2993 RMK A01 T00760045  RH  080%=      5-min Rain = 0
KWE1 181016Z 18010KT 08/05 A2993 RMK A01 T00770045  RH  080%=      5-min Rain = 0
KWE1 181017Z 17011KT 08/05 A2993 RMK A01 T00780045  RH  080%=      5-min Rain = 0
KWE1 181018Z 17010KT 08/05 A2993 RMK A01 T00790045  RH  080%=      5-min Rain = 0
KWE1 181019Z 17012KT 08/05 A2993 RMK A01 T00790045  RH  079%=      5-min Rain = 0
KWE1 181020Z 17012KT 08/05 A2993 RMK A01 T00790045  RH  079%=      5-min Rain = 0
KWE1 181021Z 17012KT 08/05 A2993 RMK A01 T00790045  RH  079%=      5-min Rain = 0
KWE1 181022Z 17012KT 08/05 A2993 RMK A01 T00790045  RH  079%=      5-min Rain = 0
KWE1 181023Z 17011KT 08/05 A2992 RMK A01 T00790045  RH  079%=      5-min Rain = 0
KWE1 181024Z 17012KT 08/05 A2992 RMK A01 T00790045  RH  079%=      5-min Rain = 0
KWE1 181025Z 17012KT 08/05 A2992 RMK A01 T00780045  RH  079%=      5-min Rain = 0
KWE1 181026Z 17012KT 08/05 A2992 RMK A01 T00780045  RH  080%=      5-min Rain = 0
KWE1 181027Z 17012KT 08/05 A2992 RMK A01 T00780045  RH  080%=      5-min Rain = 0
KWE1 181028Z 17012KT 08/05 A2992 RMK A01 T00780045  RH  080%=      5-min Rain = 0
KWE1 181029Z 17011KT 08/05 A2992 RMK A01 T00780045  RH  080%=      5-min Rain = 0
KWE1 181030Z 17012KT 08/05 A2992 RMK A01 T00780045  RH  080%=      5-min Rain = 0
KWE1 181031Z 17013KT 08/05 A2992 RMK A01 T00780045  RH  080%=      5-min Rain = 0
KWE1 181032Z 17013KT 08/05 A2992 RMK A01 T00780045  RH  080%=      5-min Rain = 0
KWE1 181033Z 17013KT 08/05 A2992 RMK A01 T00780045  RH  080%=      5-min Rain = 0
KWE1 181034Z 17012KT 08/05 A2991 RMK A01 T00770045  RH  080%=      5-min Rain = 0
KWE1 181035Z 17012KT 08/05 A2991 RMK A01 T00770045  RH  080%=      5-min Rain = 0
KWE1 181036Z 17012KT 08/05 A2991 RMK A01 T00770045  RH  080%=      5-min Rain = 0
KWE1 181037Z 17012KT 08/04 A2991 RMK A01 T00760044  RH  080%=      5-min Rain = 0
KWE1 181038Z 17012KT 08/04 A2991 RMK A01 T00760044  RH  081%=      5-min Rain = 0
KWE1 181039Z 17012KT 08/04 A2991 RMK A01 T00750044  RH  081%=      5-min Rain = 0
KWE1 181040Z 17014KT 08/04 A2991 RMK A01 T00750044  RH  081%=      5-min Rain = 0
KWE1 181041Z 17013KT 07/04 A2991 RMK A01 T00740044  RH  081%=      5-min Rain = 0
KWE1 181042Z 17013KT 08/04 A2991 RMK A01 T00750044  RH  081%=      5-min Rain = 0
KWE1 181043Z 17014KT 07/04 A2991 RMK A01 T00740044  RH  081%=      5-min Rain = 0
KWE1 181044Z 17012KT 08/04 A2991 RMK A01 T00750044  RH  081%=      5-min Rain = 0
KWE1 181045Z 18013KT 08/04 A2991 RMK A01 T00750044  RH  081%=      5-min Rain = 0
KWE1 181046Z 17012KT 08/04 A299 RMK A01 T00750044  RH  081%=      5-min Rain = 0
KWE1 181047Z 17013KT 08/05 A299 RMK A01 T00750045  RH  081%=      5-min Rain = 0
KWE1 181048Z 17012KT 08/04 A299 RMK A01 T00750044  RH  081%=      5-min Rain = 0
KWE1 181049Z 17012KT 08/05 A299 RMK A01 T00750045  RH  081%=      5-min Rain = 0
KWE1 181050Z 17013KT 08/04 A299 RMK A01 T00750044  RH  081%=      5-min Rain = 0
KWE1 181051Z 17012KT 07/04 A299 RMK A01 T00740044  RH  081%=      5-min Rain = 0
KWE1 181052Z 17012KT 08/04 A299 RMK A01 T00750044  RH  081%=      5-min Rain = 0
KWE1 181053Z 17012KT 07/04 A299 RMK A01 T00740044  RH  081%=      5-min Rain = 0
KWE1 181054Z 17012G17KT 07/04 A299 RMK A01 T00740044  RH  081%=      5-min Rain = 0
KWE1 181055Z 17012KT 07/04 A299 RMK A01 T00730044  RH  081%=      5-min Rain = 0
KWE1 181056Z 17011KT 07/04 A299 RMK A01 T00730043  RH  081%=      5-min Rain = 0
KWE1 181057Z 17011KT 07/04 A299 RMK A01 T00720043  RH  082%=      5-min Rain = 0
KWE1 181058Z 17012KT 07/04 A299 RMK A01 T00710042  RH  082%=      5-min Rain = 0
KWE1 181059Z 17011KT 07/04 A299 RMK A01 T00710042  RH  082%=      5-min Rain = 0
KWE1 181100Z 17011KT 07/04 A299 RMK A01 T00710043  RH  082%=      5-min Rain = 0
KWE1 181101Z 17011KT 07/04 A299 RMK A01 T00710043  RH  082%=      5-min Rain = 0
KWE1 181102Z 17012KT 07/04 A2989 RMK A01 T00710043  RH  082%=      5-min Rain = 0
KWE1 181103Z 17011KT 07/04 A2989 RMK A01 T00710043  RH  082%=      5-min Rain = 0
KWE1 181104Z 17012KT 07/04 A2989 RMK A01 T00710043  RH  082%=      5-min Rain = 0
KWE1 181105Z 17012KT 07/04 A2989 RMK A01 T00710043  RH  082%=      5-min Rain = 0
KWE1 181106Z 17012KT 07/04 A2989 RMK A01 T00710043  RH  082%=      5-min Rain = 0
KWE1 181107Z 17013KT 07/04 A2989 RMK A01 T00720043  RH  082%=      5-min Rain = 0
KWE1 181108Z 17014KT 07/04 A2989 RMK A01 T00720043  RH  082%=      5-min Rain = 0
KWE1 181109Z 17013KT 07/04 A2989 RMK A01 T00720044  RH  082%=      5-min Rain = 0
KWE1 181110Z 17014KT 07/04 A2989 RMK A01 T00720043  RH  082%=      5-min Rain = 0
KWE1 181111Z 17013KT 07/04 A2989 RMK A01 T00720044  RH  082%=      5-min Rain = 0
KWE1 181112Z 17013KT 07/04 A2989 RMK A01 T00730044  RH  082%=      5-min Rain = 0
KWE1 181113Z 17013KT 07/04 A2989 RMK A01 T00730043  RH  082%=      5-min Rain = 0
KWE1 181114Z 17012KT 07/04 A2989 RMK A01 T00730044  RH  082%=      5-min Rain = 0
KWE1 181115Z 17013KT 07/04 A2989 RMK A01 T00730044  RH  082%=      5-min Rain = 0
KWE1 181116Z 18013KT 07/04 A2988 RMK A01 T00720044  RH  082%=      5-min Rain = 0
KWE1 181117Z 18012KT 07/04 A2988 RMK A01 T00730044  RH  082%=      5-min Rain = 0
KWE1 181118Z 17012KT 07/04 A2988 RMK A01 T00720043  RH  082%=      5-min Rain = 0
KWE1 181119Z 17011KT 07/04 A2988 RMK A01 T00720043  RH  082%=      5-min Rain = 0
KWE1 181120Z 17011KT 07/04 A2988 RMK A01 T00720043  RH  082%=      5-min Rain = 0
KWE1 181121Z 17012KT 07/04 A2988 RMK A01 T00720044  RH  082%=      5-min Rain = 0
KWE1 181122Z 17011KT 07/04 A2988 RMK A01 T00720044  RH  082%=      5-min Rain = 0
KWE1 181123Z 17011KT 07/04 A2988 RMK A01 T00720044  RH  082%=      5-min Rain = 0
KWE1 181124Z 17010G15KT 07/04 A2988 RMK A01 T00720043  RH  082%=      5-min Rain = 0
KWE1 181125Z 17012KT 07/04 A2988 RMK A01 T00720044  RH  082%=      5-min Rain = 0
KWE1 181126Z 17011KT 07/04 A2988 RMK A01 T00720044  RH  082%=      5-min Rain = 0
KWE1 181127Z 17011KT 07/04 A2988 RMK A01 T00720044  RH  082%=      5-min Rain = 0
KWE1 181128Z 17012KT 07/04 A2987 RMK A01 T00720044  RH  082%=      5-min Rain = 0
KWE1 181129Z 17011KT 07/04 A2987 RMK A01 T00730044  RH  082%=      5-min Rain = 0
KWE1 181130Z 17010KT 07/04 A2987 RMK A01 T00730044  RH  082%=      5-min Rain = 0
KWE1 181131Z 17011KT 07/04 A2987 RMK A01 T00730044  RH  082%=      5-min Rain = 0
KWE1 181132Z 17012KT 07/04 A2987 RMK A01 T00730044  RH  082%=      5-min Rain = 0
KWE1 181133Z 17010G15KT 07/04 A2987 RMK A01 T00730044  RH  082%=      5-min Rain = 0
KWE1 181134Z 17011KT 07/04 A2987 RMK A01 T00730044  RH  082%=      5-min Rain = 0
KWE1 181135Z 17011KT 07/05 A2987 RMK A01 T00740045  RH  082%=      5-min Rain = 0
KWE1 181136Z 17011KT 07/05 A2987 RMK A01 T00740045  RH  082%=      5-min Rain = 0
KWE1 181137Z 17010KT 07/04 A2987 RMK A01 T00740044  RH  081%=      5-min Rain = 0
KWE1 181138Z 17012KT 07/04 A2987 RMK A01 T00740044  RH  081%=      5-min Rain = 0
KWE1 181139Z 17012KT 07/04 A2987 RMK A01 T00740044  RH  081%=      5-min Rain = 0
KWE1 181140Z 17011KT 07/04 A2987 RMK A01 T00740044  RH  081%=      5-min Rain = 0
KWE1 181141Z 17010KT 07/04 A2987 RMK A01 T00740044  RH  081%=      5-min Rain = 0
KWE1 181142Z 17010KT 08/04 A2987 RMK A01 T00750044  RH  081%=      5-min Rain = 0
KWE1 181143Z 17010KT 07/04 A2987 RMK A01 T00740044  RH  081%=      5-min Rain = 0
KWE1 181144Z 17010KT 08/05 A2987 RMK A01 T00750045  RH  081%=      5-min Rain = 0
KWE1 181145Z 18010KT 08/05 A2987 RMK A01 T00760045  RH  081%=      5-min Rain = 0
KWE1 181146Z 17010KT 08/05 A2987 RMK A01 T00760045  RH  081%=      5-min Rain = 0
KWE1 181147Z 18010KT 08/04 A2987 RMK A01 T00760044  RH  080%=      5-min Rain = 0
KWE1 181148Z 18010KT 08/05 A2987 RMK A01 T00770045  RH  080%=      5-min Rain = 0
KWE1 181149Z 18009KT 08/05 A2987 RMK A01 T00770045  RH  080%=      5-min Rain = 0
KWE1 181150Z 18010KT 08/04 A2987 RMK A01 T00770044  RH  080%=      5-min Rain = 0
KWE1 181151Z 18010KT 08/04 A2987 RMK A01 T00770044  RH  080%=      5-min Rain = 0
KWE1 181152Z 18010KT 08/05 A2987 RMK A01 T00770045  RH  080%=      5-min Rain = 0
KWE1 181153Z 18010KT 08/05 A2987 RMK A01 T00770045  RH  080%=      5-min Rain = 0
KWE1 181154Z 18010KT 08/05 A2987 RMK A01 T00770045  RH  080%=      5-min Rain = 0
KWE1 181155Z 18010KT 08/05 A2987 RMK A01 T00770045  RH  080%=      5-min Rain = 0
KWE1 181156Z 18010KT 08/05 A2987 RMK A01 T00770045  RH  080%=      5-min Rain = 0
KWE1 181157Z 18011KT 08/05 A2987 RMK A01 T00770045  RH  080%=      5-min Rain = 0
KWE1 181158Z 18010KT 08/05 A2987 RMK A01 T00770045  RH  080%=      5-min Rain = 0
KWE1 181159Z 18010KT 08/05 A2987 RMK A01 T00770045  RH  080%=      5-min Rain = 0
KWE1 181200Z 18010KT 08/05 A2987 RMK A01 T00770045  RH  080%=      5-min Rain = 0
KWE1 181201Z 18010KT 08/05 A2987 RMK A01 T00770045  RH  080%=      5-min Rain = 0
KWE1 181202Z 18011KT 08/05 A2987 RMK A01 T00770045  RH  080%=      5-min Rain = 0
KWE1 181203Z 18011KT 08/05 A2987 RMK A01 T00770045  RH  080%=      5-min Rain = 0
KWE1 181204Z 18010KT 08/05 A2987 RMK A01 T00780046  RH  080%=      5-min Rain = 0
KWE1 181205Z 18010KT 08/05 A2987 RMK A01 T00780045  RH  080%=      5-min Rain = 0
KWE1 181206Z 18011KT 08/05 A2987 RMK A01 T00790045  RH  079%=      5-min Rain = 0
KWE1 181207Z 18011KT 08/05 A2987 RMK A01 T00790046  RH  079%=      5-min Rain = 0
KWE1 181208Z 18010KT 08/05 A2987 RMK A01 T00800046  RH  079%=      5-min Rain = 0
KWE1 181209Z 18010KT 08/05 A2987 RMK A01 T00800045  RH  079%=      5-min Rain = 0
KWE1 181210Z 18010KT 08/05 A2987 RMK A01 T00800045  RH  079%=      5-min Rain = 0
KWE1 181211Z 18009KT 08/05 A2987 RMK A01 T00800045  RH  079%=      5-min Rain = 0
KWE1 181212Z 18010KT 08/05 A2987 RMK A01 T00800045  RH  079%=      5-min Rain = 0
KWE1 181213Z 18010KT 08/05 A2987 RMK A01 T00800045  RH  079%=      5-min Rain = 0
KWE1 181214Z 18009KT 08/05 A2987 RMK A01 T00800045  RH  079%=      5-min Rain = 0
KWE1 181215Z 18010KT 08/05 A2987 RMK A01 T00800045  RH  079%=      5-min Rain = 0
KWE1 181216Z 19010KT 08/05 A2987 RMK A01 T00800045  RH  079%=      5-min Rain = 0
KWE1 181217Z 19010KT 08/05 A2987 RMK A01 T00800046  RH  079%=      5-min Rain = 0
KWE1 181218Z 19009G14KT 08/05 A2987 RMK A01 T00810045  RH  078%=      5-min Rain = 0
KWE1 181219Z 19009KT 08/05 A2987 RMK A01 T00810046  RH  078%=      5-min Rain = 0
KWE1 181220Z 18009KT 08/05 A2987 RMK A01 T00810045  RH  078%=      5-min Rain = 0
KWE1 181221Z 19010KT 08/05 A2987 RMK A01 T00810045  RH  078%=      5-min Rain = 0
KWE1 181222Z 19010KT 08/05 A2987 RMK A01 T00810045  RH  078%=      5-min Rain = 0
KWE1 181223Z 18011KT 08/05 A2987 RMK A01 T00810046  RH  078%=      5-min Rain = 0
KWE1 181224Z 19011KT 08/05 A2986 RMK A01 T00810046  RH  078%=      5-min Rain = 0
KWE1 181225Z 18010KT 08/05 A2986 RMK A01 T00810046  RH  078%=      5-min Rain = 0
KWE1 181226Z 19011KT 08/05 A2986 RMK A01 T00810045  RH  078%=      5-min Rain = 0
KWE1 181227Z 19009KT 08/05 A2986 RMK A01 T00810046  RH  078%=      5-min Rain = 0
KWE1 181228Z 19009KT 08/05 A2986 RMK A01 T00800045  RH  078%=      5-min Rain = 0
KWE1 181229Z 19009KT 08/05 A2986 RMK A01 T00800045  RH  079%=      5-min Rain = 0
KWE1 181230Z 19009KT 08/05 A2986 RMK A01 T00800046  RH  079%=      5-min Rain = 0
KWE1 181231Z 19010KT 08/05 A2986 RMK A01 T00800045  RH  079%=      5-min Rain = 0
KWE1 181232Z 19010KT 08/05 A2986 RMK A01 T00800045  RH  079%=      5-min Rain = 0
KWE1 181233Z 19009KT 08/05 A2986 RMK A01 T00800046  RH  079%=      5-min Rain = 0
KWE1 181234Z 19009KT 08/05 A2986 RMK A01 T00800046  RH  079%=      5-min Rain = 0
KWE1 181235Z 19008KT 08/05 A2986 RMK A01 T00790045  RH  079%=      5-min Rain = 0
KWE1 181236Z 19008KT 08/05 A2986 RMK A01 T00790045  RH  079%=      5-min Rain = 0
KWE1 181237Z 19009KT 08/05 A2986 RMK A01 T00790045  RH  079%=      5-min Rain = 0
KWE1 181238Z 19009KT 08/05 A2986 RMK A01 T00800046  RH  079%=      5-min Rain = 0
KWE1 181239Z 19009KT 08/05 A2986 RMK A01 T00800046  RH  079%=      5-min Rain = 0
KWE1 181240Z 19009KT 08/05 A2986 RMK A01 T00790045  RH  079%=      5-min Rain = 0
KWE1 181241Z 19008KT 08/05 A2986 RMK A01 T00800045  RH  079%=      5-min Rain = 0
KWE1 181242Z 19010KT 08/05 A2986 RMK A01 T00790045  RH  079%=      5-min Rain = 0
KWE1 181243Z 19010KT 08/05 A2986 RMK A01 T00790045  RH  079%=      5-min Rain = 0
KWE1 181244Z 19008KT 08/05 A2986 RMK A01 T00790045  RH  079%=      5-min Rain = 0
KWE1 181245Z 19009KT 08/05 A2986 RMK A01 T00790045  RH  079%=      5-min Rain = 0
KWE1 181246Z 18010KT 08/05 A2985 RMK A01 T00790045  RH  079%=      5-min Rain = 0
KWE1 181247Z 19010KT 08/05 A2985 RMK A01 T00790045  RH  079%=      5-min Rain = 0
KWE1 181248Z 19009KT 08/05 A2985 RMK A01 T00790045  RH  079%=      5-min Rain = 0
KWE1 181249Z 19008KT 08/05 A2985 RMK A01 T00790045  RH  079%=      5-min Rain = 0
KWE1 181250Z 19009KT 08/05 A2985 RMK A01 T00790045  RH  079%=      5-min Rain = 0
KWE1 181251Z 19009KT 08/05 A2985 RMK A01 T00790045  RH  079%=      5-min Rain = 0
KWE1 181252Z 19009KT 08/05 A2985 RMK A01 T00790045  RH  079%=      5-min Rain = 0
KWE1 181253Z 19009KT 08/05 A2985 RMK A01 T00790045  RH  079%=      5-min Rain = 0
KWE1 181254Z 19009KT 08/05 A2985 RMK A01 T00790045  RH  079%=      5-min Rain = 0
KWE1 181255Z 19009KT 08/05 A2985 RMK A01 T00790046  RH  079%=      5-min Rain = 0
KWE1 181256Z 19009KT 08/05 A2985 RMK A01 T00790045  RH  079%=      5-min Rain = 0
KWE1 181257Z 18009KT 08/05 A2985 RMK A01 T00790046  RH  079%=      5-min Rain = 0
KWE1 181258Z 19009KT 08/05 A2985 RMK A01 T00790045  RH  079%=      5-min Rain = 0
KWE1 181259Z 18010KT 08/05 A2985 RMK A01 T00790045  RH  079%=      5-min Rain = 0
KWE1 181300Z 18009KT 08/05 A2985 RMK A01 T00790045  RH  079%=      5-min Rain = 0
KWE1 181301Z 18009KT 08/05 A2985 RMK A01 T00780045  RH  079%=      5-min Rain = 0
KWE1 181302Z 19007KT 08/05 A2985 RMK A01 T00780045  RH  079%=      5-min Rain = 0
KWE1 181303Z 18008KT 08/04 A2985 RMK A01 T00770044  RH  080%=      5-min Rain = 0
KWE1 181304Z 18009KT 08/04 A2985 RMK A01 T00770044  RH  080%=      5-min Rain = 0
KWE1 181305Z 18007KT 08/04 A2985 RMK A01 T00770044  RH  080%=      5-min Rain = 0
KWE1 181306Z 18009KT 08/04 A2985 RMK A01 T00770044  RH  080%=      5-min Rain = 0
KWE1 181307Z 18007KT 08/04 A2985 RMK A01 T00770044  RH  080%=      5-min Rain = 0
KWE1 181308Z 18007KT 08/04 A2985 RMK A01 T00770044  RH  080%=      5-min Rain = 0
KWE1 181309Z 18008KT 08/04 A2985 RMK A01 T00760044  RH  080%=      5-min Rain = 0
KWE1 181310Z 18009KT 08/04 A2985 RMK A01 T00750044  RH  080%=      5-min Rain = 0
KWE1 181311Z 18008KT 08/04 A2985 RMK A01 T00750044  RH  081%=      5-min Rain = 0
KWE1 181312Z 18008KT 08/04 A2985 RMK A01 T00750044  RH  081%=      5-min Rain = 0
KWE1 181313Z 18007KT 08/04 A2985 RMK A01 T00750044  RH  081%=      5-min Rain = 0
KWE1 181314Z 18008KT 07/04 A2985 RMK A01 T00740044  RH  081%=      5-min Rain = 0
KWE1 181315Z 18009KT 07/04 A2985 RMK A01 T00740044  RH  081%=      5-min Rain = 0
KWE1 181316Z 17008KT 08/04 A2985 RMK A01 T00750044  RH  081%=      5-min Rain = 0
KWE1 181317Z 17009KT 07/04 A2985 RMK A01 T00740043  RH  081%=      5-min Rain = 0
KWE1 181318Z 18008KT 07/04 A2985 RMK A01 T00740043  RH  081%=      5-min Rain = 0
KWE1 181319Z 18007KT 07/04 A2985 RMK A01 T00730043  RH  081%=      5-min Rain = 0
KWE1 181320Z 18007KT 07/04 A2985 RMK A01 T00720043  RH  082%=      5-min Rain = 0
KWE1 181321Z 18007KT 07/04 A2985 RMK A01 T00710043  RH  082%=      5-min Rain = 0
KWE1 181322Z 18008KT 07/04 A2985 RMK A01 T00710043  RH  082%=      5-min Rain = 0
KWE1 181323Z 18007KT 07/04 A2985 RMK A01 T00710043  RH  082%=      5-min Rain = 0
KWE1 181324Z 18008KT 07/04 A2985 RMK A01 T00710043  RH  082%=      5-min Rain = 0
KWE1 181325Z 18008KT 07/04 A2985 RMK A01 T00710043  RH  082%=      5-min Rain = 0
KWE1 181326Z 17008KT 07/04 A2985 RMK A01 T00710044  RH  082%=      5-min Rain = 0
KWE1 181327Z 18008KT 07/04 A2985 RMK A01 T00710043  RH  082%=      5-min Rain = 0
KWE1 181328Z 18007KT 07/04 A2985 RMK A01 T00710043  RH  082%=      5-min Rain = 0
KWE1 181329Z 18007KT 07/04 A2985 RMK A01 T00700042  RH  082%=      5-min Rain = 0
KWE1 181330Z 18009KT 07/04 A2985 RMK A01 T00700043  RH  083%=      5-min Rain = 0
KWE1 181331Z 18006KT 07/04 A2985 RMK A01 T00710043  RH  083%=      5-min Rain = 0
KWE1 181332Z 18007KT 07/04 A2985 RMK A01 T00710043  RH  082%=      5-min Rain = 0
KWE1 181333Z 18007KT 07/04 A2985 RMK A01 T00710043  RH  082%=      5-min Rain = 0
KWE1 181334Z 18007KT 07/04 A2985 RMK A01 T00710042  RH  082%=      5-min Rain = 0
KWE1 181335Z 18008KT 07/04 A2985 RMK A01 T00710043  RH  082%=      5-min Rain = 0
KWE1 181336Z 18008KT 07/04 A2985 RMK A01 T00720044  RH  082%=      5-min Rain = 0
KWE1 181337Z 18007KT 07/04 A2985 RMK A01 T00730043  RH  082%=      5-min Rain = 0
KWE1 181338Z 18007KT 07/04 A2985 RMK A01 T00730043  RH  081%=      5-min Rain = 0
KWE1 181339Z 18007KT 07/04 A2985 RMK A01 T00720043  RH  081%=      5-min Rain = 0
KWE1 181340Z 18008KT 07/04 A2984 RMK A01 T00720042  RH  081%=      5-min Rain = 0
KWE1 181341Z 17009KT 07/04 A2984 RMK A01 T00710042  RH  082%=      5-min Rain = 0
KWE1 181342Z 18008KT 07/04 A2984 RMK A01 T00710042  RH  082%=      5-min Rain = 0
KWE1 181343Z 18007KT 07/04 A2984 RMK A01 T00710042  RH  082%=      5-min Rain = 0
KWE1 181344Z 18008KT 07/04 A2984 RMK A01 T00710042  RH  082%=      5-min Rain = 0
KWE1 181345Z 18008KT 07/04 A2984 RMK A01 T00710042  RH  082%=      5-min Rain = 0
KWE1 181346Z 18007G12KT 07/04 A2984 RMK A01 T00710042  RH  082%=      5-min Rain = 0
KWE1 181347Z 18008KT 07/04 A2984 RMK A01 T00720042  RH  082%=      5-min Rain = 0
KWE1 181348Z 19007KT 07/04 A2984 RMK A01 T00720043  RH  082%=      5-min Rain = 0
KWE1 181349Z 18008KT 07/04 A2984 RMK A01 T00730043  RH  081%=      5-min Rain = 0
KWE1 181350Z 19009KT 07/04 A2984 RMK A01 T00730043  RH  081%=      5-min Rain = 0
KWE1 181351Z 19008KT 07/04 A2984 RMK A01 T00740043  RH  081%=      5-min Rain = 0
KWE1 181352Z 19009KT 07/04 A2984 RMK A01 T00730043  RH  081%=      5-min Rain = 0
KWE1 181353Z 18009KT 07/04 A2983 RMK A01 T00740043  RH  081%=      5-min Rain = 0
KWE1 181354Z 18009KT 07/04 A2983 RMK A01 T00740043  RH  081%=      5-min Rain = 0
KWE1 181355Z 19008KT 07/04 A2983 RMK A01 T00740043  RH  080%=      5-min Rain = 0
KWE1 181356Z 18008KT 08/04 A2983 RMK A01 T00750043  RH  080%=      5-min Rain = 0
KWE1 181357Z 18009KT 07/04 A2983 RMK A01 T00740042  RH  080%=      5-min Rain = 0
KWE1 181358Z 18009KT 08/04 A2983 RMK A01 T00750043  RH  080%=      5-min Rain = 0
KWE1 181359Z 18008KT 08/04 A2983 RMK A01 T00760043  RH  080%=      5-min Rain = 0
KWE1 181400Z 18008KT 08/04 A2983 RMK A01 T00760043  RH  079%=      5-min Rain = 0
KWE1 181401Z 18010KT 08/04 A2983 RMK A01 T00770043  RH  079%=      5-min Rain = 0
KWE1 181402Z 19009KT 08/04 A2983 RMK A01 T00780043  RH  079%=      5-min Rain = 0
KWE1 181403Z 19009KT 08/04 A2983 RMK A01 T00780043  RH  078%=      5-min Rain = 0
KWE1 181404Z 19009KT 08/04 A2983 RMK A01 T00780043  RH  078%=      5-min Rain = 0
KWE1 181405Z 19010KT 08/04 A2983 RMK A01 T00790043  RH  078%=      5-min Rain = 0
KWE1 181406Z 19009KT 08/04 A2983 RMK A01 T00790043  RH  078%=      5-min Rain = 0
KWE1 181407Z 19009KT 08/04 A2983 RMK A01 T00790043  RH  078%=      5-min Rain = 0
KWE1 181408Z 19009KT 08/04 A2983 RMK A01 T00790043  RH  078%=      5-min Rain = 0
KWE1 181409Z 19009KT 08/04 A2983 RMK A01 T00800043  RH  078%=      5-min Rain = 0
KWE1 181410Z 19009KT 08/04 A2983 RMK A01 T00800043  RH  077%=      5-min Rain = 0
KWE1 181411Z 19010KT 08/04 A2983 RMK A01 T00810043  RH  077%=      5-min Rain = 0
KWE1 181412Z 19009KT 08/04 A2983 RMK A01 T00810043  RH  077%=      5-min Rain = 0
KWE1 181413Z 19010KT 08/04 A2983 RMK A01 T00820043  RH  077%=      5-min Rain = 0
KWE1 181414Z 19010KT 08/04 A2983 RMK A01 T00820043  RH  076%=      5-min Rain = 0
KWE1 181415Z 19010KT 08/04 A2983 RMK A01 T00830044  RH  076%=      5-min Rain = 0
KWE1 181416Z 19011KT 08/04 A2983 RMK A01 T00830044  RH  076%=      5-min Rain = 0
KWE1 181417Z 19009KT 08/04 A2983 RMK A01 T00840044  RH  076%=      5-min Rain = 0
KWE1 181418Z 19009KT 08/04 A2983 RMK A01 T00840044  RH  076%=      5-min Rain = 0
KWE1 181419Z 19008KT 09/04 A2983 RMK A01 T00850044  RH  076%=      5-min Rain = 0
KWE1 181420Z 19009KT 09/04 A2983 RMK A01 T00850044  RH  076%=      5-min Rain = 0
KWE1 181421Z 19009KT 09/04 A2983 RMK A01 T00850044  RH  075%=      5-min Rain = 0
KWE1 181422Z 19008KT 09/04 A2983 RMK A01 T00850044  RH  075%=      5-min Rain = 0
KWE1 181423Z 19008KT 09/04 A2983 RMK A01 T00860044  RH  075%=      5-min Rain = 0
KWE1 181424Z 19009KT 09/04 A2983 RMK A01 T00860044  RH  075%=      5-min Rain = 0
KWE1 181425Z 19009KT 09/04 A2983 RMK A01 T00870044  RH  075%=      5-min Rain = 0
KWE1 181426Z 19010KT 09/05 A2983 RMK A01 T00870045  RH  075%=      5-min Rain = 0
KWE1 181427Z 19009KT 09/04 A2983 RMK A01 T00870044  RH  074%=      5-min Rain = 0
KWE1 181428Z 19009KT 09/05 A2983 RMK A01 T00880045  RH  074%=      5-min Rain = 0
KWE1 181429Z 19010KT 09/05 A2983 RMK A01 T00880045  RH  074%=      5-min Rain = 0
KWE1 181430Z 19009KT 09/05 A2983 RMK A01 T00890045  RH  074%=      5-min Rain = 0
KWE1 181431Z 19010KT 09/05 A2983 RMK A01 T00890045  RH  074%=      5-min Rain = 0
KWE1 181432Z 19011KT 09/05 A2983 RMK A01 T00890045  RH  074%=      5-min Rain = 0
KWE1 181433Z 19009KT 09/05 A2983 RMK A01 T00900045  RH  074%=      5-min Rain = 0
KWE1 181434Z 19010KT 09/05 A2983 RMK A01 T00900046  RH  074%=      5-min Rain = 0
KWE1 181435Z 19010KT 09/05 A2983 RMK A01 T00900046  RH  074%=      5-min Rain = 0
KWE1 181436Z 19010KT 09/05 A2983 RMK A01 T00900046  RH  073%=      5-min Rain = 0
KWE1 181437Z 19010KT 09/05 A2982 RMK A01 T00910046  RH  073%=      5-min Rain = 0
KWE1 181438Z 19010KT 09/05 A2982 RMK A01 T00910045  RH  073%=      5-min Rain = 0
KWE1 181439Z 19008KT 09/05 A2982 RMK A01 T00910046  RH  073%=      5-min Rain = 0
KWE1 181440Z 19008KT 09/05 A2982 RMK A01 T00910046  RH  073%=      5-min Rain = 0
KWE1 181441Z 19010KT 09/05 A2982 RMK A01 T00910046  RH  073%=      5-min Rain = 0
KWE1 181442Z 19008KT 09/05 A2982 RMK A01 T00920046  RH  073%=      5-min Rain = 0
KWE1 181443Z 19009KT 09/05 A2982 RMK A01 T00930047  RH  073%=      5-min Rain = 0
KWE1 181444Z 19009KT 09/05 A2982 RMK A01 T00930047  RH  073%=      5-min Rain = 0
KWE1 181445Z 19009KT 09/05 A2982 RMK A01 T00940047  RH  072%=      5-min Rain = 0
KWE1 181446Z 18010KT 10/05 A2982 RMK A01 T00950047  RH  072%=      5-min Rain = 0
KWE1 181447Z 19010KT 10/05 A2982 RMK A01 T00960048  RH  072%=      5-min Rain = 0
KWE1 181448Z 19010KT 10/05 A2982 RMK A01 T00960047  RH  072%=      5-min Rain = 0
KWE1 181449Z 19010KT 10/05 A2982 RMK A01 T00970047  RH  071%=      5-min Rain = 0
KWE1 181450Z 19010KT 10/05 A2982 RMK A01 T00970047  RH  071%=      5-min Rain = 0
KWE1 181451Z 19010KT 10/05 A2982 RMK A01 T00980047  RH  071%=      5-min Rain = 0
KWE1 181452Z 19009KT 10/05 A2982 RMK A01 T00980047  RH  070%=      5-min Rain = 0
KWE1 181453Z 19011KT 10/05 A2982 RMK A01 T00990047  RH  070%=      5-min Rain = 0
KWE1 181454Z 19011KT 10/05 A2982 RMK A01 T01000047  RH  070%=      5-min Rain = 0
KWE1 181455Z 19011KT 10/05 A2982 RMK A01 T01010048  RH  070%=      5-min Rain = 0
KWE1 181456Z 18010KT 10/05 A2981 RMK A01 T01010048  RH  069%=      5-min Rain = 0
KWE1 181457Z 19009KT 10/05 A2981 RMK A01 T01020048  RH  070%=      5-min Rain = 0
KWE1 181458Z 18010KT 10/05 A2981 RMK A01 T01020048  RH  069%=      5-min Rain = 0
KWE1 181459Z 19010KT 10/05 A2981 RMK A01 T01030048  RH  069%=      5-min Rain = 0
KWE1 181500Z 19011KT 10/05 A2982 RMK A01 T01040048  RH  068%=      5-min Rain = 0
KWE1 181501Z 19010KT 10/05 A2982 RMK A01 T01040048  RH  068%=      5-min Rain = 0
KWE1 181502Z 19009KT 11/05 A2982 RMK A01 T01050048  RH  068%=      5-min Rain = 0
KWE1 181503Z 19010KT 11/05 A2982 RMK A01 T01050048  RH  068%=      5-min Rain = 0
KWE1 181504Z 19009KT 11/05 A2982 RMK A01 T01060048  RH  067%=      5-min Rain = 0
KWE1 181505Z 19009KT 11/05 A2982 RMK A01 T01060048  RH  067%=      5-min Rain = 0
KWE1 181506Z 19009KT 11/05 A2982 RMK A01 T01070049  RH  067%=      5-min Rain = 0
KWE1 181507Z 19008KT 11/05 A2982 RMK A01 T01080050  RH  067%=      5-min Rain = 0
KWE1 181508Z 19009KT 11/05 A2982 RMK A01 T01080050  RH  067%=      5-min Rain = 0
KWE1 181509Z 19009KT 11/05 A2982 RMK A01 T01080050  RH  067%=      5-min Rain = 0
KWE1 181510Z 19008KT 11/05 A2982 RMK A01 T01080049  RH  067%=      5-min Rain = 0
KWE1 181511Z 19007KT 11/05 A2982 RMK A01 T01080050  RH  067%=      5-min Rain = 0
KWE1 181512Z 20008KT 11/05 A2982 RMK A01 T01090050  RH  067%=      5-min Rain = 0
KWE1 181513Z 20006KT 11/05 A2982 RMK A01 T01080050  RH  067%=      5-min Rain = 0
KWE1 181514Z 20007KT 11/05 A2982 RMK A01 T01090050  RH  067%=      5-min Rain = 0
KWE1 181515Z 20007KT 11/05 A2982 RMK A01 T01100050  RH  067%=      5-min Rain = 0
KWE1 181516Z 20009KT 11/05 A2982 RMK A01 T01100050  RH  066%=      5-min Rain = 0
KWE1 181517Z 20009KT 11/05 A2982 RMK A01 T01100049  RH  066%=      5-min Rain = 0
KWE1 181518Z 20009KT 11/05 A2982 RMK A01 T01100049  RH  066%=      5-min Rain = 0
KWE1 181519Z 19009KT 11/05 A2982 RMK A01 T01100050  RH  067%=      5-min Rain = 0
KWE1 181520Z 20010KT 11/05 A2982 RMK A01 T01110050  RH  066%=      5-min Rain = 0
KWE1 181521Z 19010KT 11/05 A2982 RMK A01 T01100050  RH  066%=      5-min Rain = 0
KWE1 181522Z 20011KT 11/05 A2982 RMK A01 T01110050  RH  066%=      5-min Rain = 0
KWE1 181523Z 19009KT 11/05 A2981 RMK A01 T01110050  RH  066%=      5-min Rain = 0
KWE1 181524Z 19010KT 11/05 A2981 RMK A01 T01110051  RH  067%=      5-min Rain = 0
KWE1 181525Z 19010KT 11/05 A2981 RMK A01 T01110050  RH  066%=      5-min Rain = 0
KWE1 181526Z 19009KT 11/05 A2981 RMK A01 T01110050  RH  066%=      5-min Rain = 0
KWE1 181527Z 19009KT 11/05 A2981 RMK A01 T01120051  RH  066%=      5-min Rain = 0
KWE1 181528Z 18009KT 11/05 A2981 RMK A01 T01120052  RH  066%=      5-min Rain = 0
KWE1 181529Z 19011KT 11/05 A2981 RMK A01 T01130053  RH  066%=      5-min Rain = 0
KWE1 181530Z 19011KT 11/05 A2981 RMK A01 T01120052  RH  066%=      5-min Rain = 0
KWE1 181531Z 19011KT 11/05 A2981 RMK A01 T01120052  RH  067%=      5-min Rain = 0
KWE1 181532Z 19010KT 11/05 A2981 RMK A01 T01120052  RH  067%=      5-min Rain = 0
KWE1 181533Z 20008KT 11/05 A2981 RMK A01 T01120053  RH  067%=      5-min Rain = 0
KWE1 181534Z 19009KT 11/05 A2981 RMK A01 T01140053  RH  066%=      5-min Rain = 0
KWE1 181535Z 20010KT 12/05 A2981 RMK A01 T01150053  RH  066%=      5-min Rain = 0
KWE1 181536Z 21010KT 12/05 A2981 RMK A01 T01150051  RH  065%=      5-min Rain = 0
KWE1 181537Z 20009KT 12/05 A2981 RMK A01 T01150052  RH  065%=      5-min Rain = 0
KWE1 181538Z 21009KT 12/05 A2981 RMK A01 T01160052  RH  065%=      5-min Rain = 0
KWE1 181539Z 21009KT 12/05 A2981 RMK A01 T01170053  RH  065%=      5-min Rain = 0
KWE1 181540Z 20009KT 12/05 A2982 RMK A01 T01180054  RH  065%=      5-min Rain = 0
KWE1 181541Z 21009KT 12/05 A2981 RMK A01 T01200054  RH  064%=      5-min Rain = 0
KWE1 181542Z 21009KT 12/05 A2981 RMK A01 T01210054  RH  064%=      5-min Rain = 0
KWE1 181543Z 21008KT 12/06 A2981 RMK A01 T01220055  RH  064%=      5-min Rain = 0
KWE1 181544Z 22010KT 12/06 A2981 RMK A01 T01240056  RH  063%=      5-min Rain = 0
KWE1 181545Z 22010KT 13/06 A2982 RMK A01 T01250056  RH  063%=      5-min Rain = 0
KWE1 181546Z 22010KT 13/06 A2982 RMK A01 T01250055  RH  062%=      5-min Rain = 0
KWE1 181547Z 22011KT 13/06 A2982 RMK A01 T01250056  RH  062%=      5-min Rain = 0
KWE1 181548Z 21010KT 13/06 A2982 RMK A01 T01250056  RH  062%=      5-min Rain = 0
KWE1 181549Z 22009KT 13/06 A2982 RMK A01 T01250056  RH  063%=      5-min Rain = 0
KWE1 181550Z 22009KT 13/06 A2982 RMK A01 T01250057  RH  063%=      5-min Rain = 0
KWE1 181551Z 21007KT 13/06 A2982 RMK A01 T01260060  RH  064%=      5-min Rain = 0
KWE1 181552Z 21007KT 13/06 A2982 RMK A01 T01280062  RH  064%=      5-min Rain = 0
KWE1 181553Z 22010KT 13/06 A2981 RMK A01 T01290058  RH  062%=      5-min Rain = 0
KWE1 181554Z 22009KT 13/06 A2982 RMK A01 T01280057  RH  062%=      5-min Rain = 0
KWE1 181555Z 21008KT 13/06 A2982 RMK A01 T01280057  RH  062%=      5-min Rain = 0
KWE1 181556Z 22008KT 13/06 A2982 RMK A01 T01280059  RH  063%=      5-min Rain = 0
KWE1 181557Z 22009KT 13/06 A2981 RMK A01 T01280059  RH  063%=      5-min Rain = 0
KWE1 181558Z 22010KT 13/06 A2982 RMK A01 T01280058  RH  062%=      5-min Rain = 0
KWE1 181559Z 22010KT 13/06 A2982 RMK A01 T01270058  RH  063%=      5-min Rain = 0
KWE1 181600Z 22008KT 13/06 A2981 RMK A01 T01270059  RH  063%=      5-min Rain = 0
KWE1 181601Z 22008KT 13/06 A2981 RMK A01 T01280062  RH  064%=      5-min Rain = 0
KWE1 181602Z 22008KT 13/06 A2981 RMK A01 T01300061  RH  063%=      5-min Rain = 0
KWE1 181603Z 22008KT 13/06 A2981 RMK A01 T01310062  RH  063%=      5-min Rain = 0
KWE1 181604Z 22010KT 13/06 A2981 RMK A01 T01330063  RH  062%=      5-min Rain = 0
KWE1 181605Z 22011KT 14/06 A2981 RMK A01 T01350060  RH  060%=      5-min Rain = 0
KWE1 181606Z 22008KT 13/06 A2981 RMK A01 T01340060  RH  061%=      5-min Rain = 0
KWE1 181607Z 23011KT 13/06 A2981 RMK A01 T01340061  RH  061%=      5-min Rain = 0
KWE1 181608Z 23010KT 13/06 A2981 RMK A01 T01320057  RH  060%=      5-min Rain = 0
KWE1 181609Z 22009KT 13/06 A2981 RMK A01 T01310057  RH  061%=      5-min Rain = 0
KWE1 181610Z 23008KT 13/06 A2981 RMK A01 T01290056  RH  061%=      5-min Rain = 0
KWE1 181611Z 23008KT 13/06 A2981 RMK A01 T01280057  RH  062%=      5-min Rain = 0
KWE1 181612Z 23008KT 13/06 A2982 RMK A01 T01280058  RH  062%=      5-min Rain = 0
KWE1 181613Z 23007KT 13/06 A2982 RMK A01 T01270057  RH  062%=      5-min Rain = 0
KWE1 181614Z 23008KT 13/06 A2981 RMK A01 T01280057  RH  062%=      5-min Rain = 0
KWE1 181615Z 23007KT 13/06 A2982 RMK A01 T01280058  RH  062%=      5-min Rain = 0
KWE1 181616Z 24006KT 13/06 A2982 RMK A01 T01270058  RH  063%=      5-min Rain = 0
KWE1 181617Z 23008KT 13/06 A2982 RMK A01 T01280058  RH  062%=      5-min Rain = 0
KWE1 181618Z 23007KT 13/06 A2982 RMK A01 T01270057  RH  062%=      5-min Rain = 0
KWE1 181619Z 24008KT 13/06 A2982 RMK A01 T01270058  RH  063%=      5-min Rain = 0
KWE1 181620Z 24007KT 13/06 A2982 RMK A01 T01290060  RH  063%=      5-min Rain = 0
KWE1 181621Z 23006KT 13/06 A2982 RMK A01 T01310062  RH  063%=      5-min Rain = 0
KWE1 181622Z 23007KT 14/06 A2982 RMK A01 T01350064  RH  062%=      5-min Rain = 0
KWE1 181623Z 24006KT 14/07 A2982 RMK A01 T01370065  RH  062%=      5-min Rain = 0
KWE1 181624Z 23006KT 14/07 A2982 RMK A01 T01400066  RH  061%=      5-min Rain = 0
KWE1 181625Z 22005KT 14/07 A2982 RMK A01 T01420069  RH  061%=      5-min Rain = 0
KWE1 181626Z 23008KT 15/07 A2982 RMK A01 T01450069  RH  060%=      5-min Rain = 0
KWE1 181627Z 22007KT 15/07 A2982 RMK A01 T01450068  RH  059%=      5-min Rain = 0
KWE1 181628Z 22006KT 15/07 A2982 RMK A01 T01460069  RH  060%=      5-min Rain = 0
KWE1 181629Z 23008KT 15/07 A2982 RMK A01 T01470069  RH  060%=      5-min Rain = 0
KWE1 181630Z 23007KT 15/07 A2982 RMK A01 T01470067  RH  059%=      5-min Rain = 0
KWE1 181631Z 23007KT 15/07 A2982 RMK A01 T01460066  RH  059%=      5-min Rain = 0
KWE1 181632Z 23009KT 15/07 A2982 RMK A01 T01450065  RH  059%=      5-min Rain = 0
KWE1 181633Z 23010KT 14/07 A2982 RMK A01 T01440065  RH  059%=      5-min Rain = 0
KWE1 181634Z 23010KT 14/06 A2982 RMK A01 T01440064  RH  059%=      5-min Rain = 0
KWE1 181635Z 23009KT 14/07 A2982 RMK A01 T01440066  RH  059%=      5-min Rain = 0
KWE1 181636Z 23009KT 15/07 A2982 RMK A01 T01450066  RH  059%=      5-min Rain = 0
KWE1 181637Z 22009KT 15/07 A2981 RMK A01 T01460067  RH  059%=      5-min Rain = 0
KWE1 181638Z 23009KT 15/07 A2982 RMK A01 T01480068  RH  059%=      5-min Rain = 0
KWE1 181639Z 23009KT 15/07 A2981 RMK A01 T01490067  RH  058%=      5-min Rain = 0
KWE1 181640Z 23009KT 15/07 A2982 RMK A01 T01500068  RH  058%=      5-min Rain = 0
KWE1 181641Z 22009KT 15/07 A2981 RMK A01 T01500069  RH  058%=      5-min Rain = 0
KWE1 181642Z 22008KT 15/07 A2981 RMK A01 T01520070  RH  058%=      5-min Rain = 0
KWE1 181643Z 21012KT 16/07 A2981 RMK A01 T01550072  RH  058%=      5-min Rain = 0
KWE1 181644Z 22011KT 16/07 A2981 RMK A01 T01550071  RH  057%=      5-min Rain = 0
KWE1 181645Z 21011KT 15/07 A2981 RMK A01 T01540070  RH  057%=      5-min Rain = 0
KWE1 181646Z 21011KT 15/07 A2981 RMK A01 T01540070  RH  057%=      5-min Rain = 0
KWE1 181647Z 22012KT 16/07 A2981 RMK A01 T01550070  RH  057%=      5-min Rain = 0
KWE1 181648Z 22011KT 15/07 A2981 RMK A01 T01540070  RH  057%=      5-min Rain = 0
KWE1 181649Z 21012KT 15/07 A2981 RMK A01 T01530070  RH  057%=      5-min Rain = 0
KWE1 181650Z 21012KT 15/07 A2981 RMK A01 T01510068  RH  057%=      5-min Rain = 0
KWE1 181651Z 22011KT 15/07 A2981 RMK A01 T01500069  RH  058%=      5-min Rain = 0
KWE1 181652Z 22010KT 15/07 A2981 RMK A01 T01500072  RH  059%=      5-min Rain = 0
KWE1 181653Z 22010KT 15/07 A2981 RMK A01 T01500073  RH  060%=      5-min Rain = 0
KWE1 181654Z 22011KT 15/07 A2981 RMK A01 T01500072  RH  059%=      5-min Rain = 0
KWE1 181655Z 22009KT 15/07 A2981 RMK A01 T01500073  RH  060%=      5-min Rain = 0
KWE1 181656Z 22011KT 15/08 A2981 RMK A01 T01500075  RH  061%=      5-min Rain = 0
KWE1 181657Z 22011KT 15/07 A2981 RMK A01 T01490072  RH  060%=      5-min Rain = 0
KWE1 181658Z 22011KT 15/07 A298 RMK A01 T01500074  RH  060%=      5-min Rain = 0
KWE1 181659Z 21010KT 15/07 A298 RMK A01 T01490074  RH  061%=      5-min Rain = 0
KWE1 181700Z 21011KT 15/08 A298 RMK A01 T01500075  RH  061%=      5-min Rain = 0
KWE1 181701Z 22012KT 15/08 A298 RMK A01 T01510075  RH  060%=      5-min Rain = 0
KWE1 181702Z 22010KT 15/07 A298 RMK A01 T01510073  RH  060%=      5-min Rain = 0
KWE1 181703Z 22009KT 15/07 A298 RMK A01 T01510074  RH  060%=      5-min Rain = 0
KWE1 181704Z 22011KT 15/08 A2981 RMK A01 T01520077  RH  061%=      5-min Rain = 0
KWE1 181705Z 21010KT 15/08 A2981 RMK A01 T01520076  RH  061%=      5-min Rain = 0
KWE1 181706Z 22010KT 15/08 A2981 RMK A01 T01530078  RH  061%=      5-min Rain = 0
KWE1 181707Z 22010KT 16/08 A298 RMK A01 T01560080  RH  061%=      5-min Rain = 0
KWE1 181708Z 22010KT 16/08 A298 RMK A01 T01580079  RH  059%=      5-min Rain = 0
KWE1 181709Z 21007KT 16/08 A298 RMK A01 T01610083  RH  060%=      5-min Rain = 0
KWE1 181710Z 21012KT 16/08 A2979 RMK A01 T01640083  RH  059%=      5-min Rain = 0
KWE1 181711Z 22012KT 16/08 A2979 RMK A01 T01640080  RH  057%=      5-min Rain = 0
KWE1 181712Z 21012KT 17/08 A2979 RMK A01 T01660084  RH  058%=      5-min Rain = 0
KWE1 181713Z 22012KT 17/08 A2979 RMK A01 T01670082  RH  057%=      5-min Rain = 0
KWE1 181714Z 21010KT 17/08 A2979 RMK A01 T01650081  RH  058%=      5-min Rain = 0
KWE1 181715Z 21013KT 16/08 A2979 RMK A01 T01630081  RH  058%=      5-min Rain = 0
KWE1 181716Z 21012KT 16/08 A2978 RMK A01 T01620079  RH  058%=      5-min Rain = 0
KWE1 181717Z 21012KT 16/08 A2978 RMK A01 T01610079  RH  058%=      5-min Rain = 0
KWE1 181718Z 21011KT 16/08 A2978 RMK A01 T01620081  RH  059%=      5-min Rain = 0
KWE1 181719Z 21012KT 16/08 A2978 RMK A01 T01640081  RH  058%=      5-min Rain = 0
KWE1 181720Z 22010KT 16/08 A2978 RMK A01 T01640082  RH  058%=      5-min Rain = 0
KWE1 181721Z 22009KT 17/09 A2978 RMK A01 T01670086  RH  059%=      5-min Rain = 0
KWE1 181722Z 22010KT 17/09 A2978 RMK A01 T01690085  RH  058%=      5-min Rain = 0
KWE1 181723Z 22012KT 17/08 A2978 RMK A01 T01700084  RH  057%=      5-min Rain = 0
KWE1 181724Z 21013KT 17/08 A2978 RMK A01 T01700082  RH  056%=      5-min Rain = 0
KWE1 181725Z 22012KT 17/08 A2978 RMK A01 T01700082  RH  056%=      5-min Rain = 0
KWE1 181726Z 21011KT 17/08 A2978 RMK A01 T01700083  RH  057%=      5-min Rain = 0
KWE1 181727Z 21013KT 17/08 A2977 RMK A01 T01710083  RH  056%=      5-min Rain = 0
KWE1 181728Z 21012KT 17/08 A2977 RMK A01 T01720082  RH  055%=      5-min Rain = 0
KWE1 181729Z 21013KT 17/08 A2977 RMK A01 T01730083  RH  055%=      5-min Rain = 0
KWE1 181730Z 21013KT 17/08 A2977 RMK A01 T01740082  RH  055%=      5-min Rain = 0
KWE1 181731Z 21014KT 17/08 A2977 RMK A01 T01740080  RH  054%=      5-min Rain = 0
KWE1 181732Z 21011KT 18/08 A2977 RMK A01 T01750081  RH  054%=      5-min Rain = 0
KWE1 181733Z 22010KT 18/09 A2977 RMK A01 T01780086  RH  055%=      5-min Rain = 0
KWE1 181734Z 22012KT 18/09 A2977 RMK A01 T01810085  RH  054%=      5-min Rain = 0
KWE1 181735Z 22010KT 18/09 A2977 RMK A01 T01820086  RH  053%=      5-min Rain = 0
KWE1 181736Z 22012KT 18/09 A2977 RMK A01 T01830086  RH  053%=      5-min Rain = 0
KWE1 181737Z 21013KT 18/08 A2977 RMK A01 T01830084  RH  052%=      5-min Rain = 0
KWE1 181738Z 21011KT 18/08 A2977 RMK A01 T01830083  RH  052%=      5-min Rain = 0
KWE1 181739Z 22013KT 18/08 A2977 RMK A01 T01820083  RH  052%=      5-min Rain = 0
KWE1 181740Z 21011KT 18/08 A2977 RMK A01 T01830083  RH  052%=      5-min Rain = 0
KWE1 181741Z 21012KT 19/08 A2977 RMK A01 T01850080  RH  050%=      5-min Rain = 0
KWE1 181742Z 21013KT 19/08 A2977 RMK A01 T01850079  RH  050%=      5-min Rain = 0
KWE1 181743Z 21015KT 19/08 A2977 RMK A01 T01850078  RH  050%=      5-min Rain = 0
KWE1 181744Z 21016KT 19/08 A2977 RMK A01 T01860076  RH  049%=      5-min Rain = 0
KWE1 181745Z 21015KT 19/08 A2977 RMK A01 T01860076  RH  048%=      5-min Rain = 0
KWE1 181746Z 22014KT 19/08 A2976 RMK A01 T01860075  RH  048%=      5-min Rain = 0
KWE1 181747Z 21015KT 19/08 A2976 RMK A01 T01870077  RH  049%=      5-min Rain = 0
KWE1 181748Z 22014KT 19/08 A2976 RMK A01 T01880076  RH  048%=      5-min Rain = 0
KWE1 181749Z 21014KT 19/08 A2976 RMK A01 T01880077  RH  048%=      5-min Rain = 0
KWE1 181750Z 21014KT 19/08 A2976 RMK A01 T01890076  RH  048%=      5-min Rain = 0
KWE1 181751Z 21015KT 19/08 A2976 RMK A01 T01890079  RH  049%=      5-min Rain = 0
KWE1 181752Z 22014KT 19/08 A2976 RMK A01 T01900078  RH  048%=      5-min Rain = 0
KWE1 181753Z 22013KT 19/08 A2976 RMK A01 T01900077  RH  048%=      5-min Rain = 0
KWE1 181754Z 21014KT 19/08 A2976 RMK A01 T01900076  RH  048%=      5-min Rain = 0
KWE1 181755Z 21011KT 19/08 A2976 RMK A01 T01900077  RH  048%=      5-min Rain = 0
KWE1 181756Z 22013KT 19/08 A2976 RMK A01 T01910079  RH  048%=      5-min Rain = 0
KWE1 181757Z 22013KT 19/08 A2976 RMK A01 T01910078  RH  048%=      5-min Rain = 0
KWE1 181758Z 22013KT 19/08 A2976 RMK A01 T01920079  RH  048%=      5-min Rain = 0
KWE1 181759Z 21011KT 19/08 A2975 RMK A01 T01940078  RH  047%=      5-min Rain = 0
KWE1 181800Z 22012KT 19/08 A2975 RMK A01 T01940078  RH  047%=      5-min Rain = 0
KWE1 181801Z 22011KT 19/08 A2976 RMK A01 T01940082  RH  048%=      5-min Rain = 0
KWE1 181802Z 23014KT 20/08 A2975 RMK A01 T01950077  RH  046%=      5-min Rain = 0
KWE1 181803Z 22011KT 20/08 A2976 RMK A01 T01960080  RH  047%=      5-min Rain = 0
KWE1 181804Z 22013KT 20/08 A2975 RMK A01 T01970083  RH  048%=      5-min Rain = 0
KWE1 181805Z 22013KT 20/08 A2975 RMK A01 T01970075  RH  045%=      5-min Rain = 0
KWE1 181806Z 22012KT 20/08 A2975 RMK A01 T01970078  RH  046%=      5-min Rain = 0
KWE1 181807Z 22012KT 20/08 A2975 RMK A01 T01970080  RH  047%=      5-min Rain = 0
KWE1 181808Z 22010KT 20/08 A2975 RMK A01 T01970082  RH  047%=      5-min Rain = 0
KWE1 181809Z 23014KT 20/08 A2975 RMK A01 T01990081  RH  046%=      5-min Rain = 0
KWE1 181810Z 22012KT 20/08 A2974 RMK A01 T02000075  RH  044%=      5-min Rain = 0
KWE1 181811Z 22013KT 20/08 A2974 RMK A01 T02000077  RH  045%=      5-min Rain = 0
KWE1 181812Z 23012KT 20/08 A2974 RMK A01 T02000076  RH  045%=      5-min Rain = 0
KWE1 181813Z 23011KT 20/08 A2974 RMK A01 T02000075  RH  044%=      5-min Rain = 0
KWE1 181814Z 22011KT 20/08 A2973 RMK A01 T02010077  RH  045%=      5-min Rain = 0
KWE1 181815Z 21013KT 20/08 A2973 RMK A01 T02020079  RH  045%=      5-min Rain = 0
KWE1 181816Z 22013KT 20/08 A2973 RMK A01 T02020080  RH  045%=      5-min Rain = 0
KWE1 181817Z 22013KT 20/08 A2973 RMK A01 T02020080  RH  045%=      5-min Rain = 0
KWE1 181818Z 23011KT 20/08 A2973 RMK A01 T02030080  RH  045%=      5-min Rain = 0
KWE1 181819Z 24008KT 20/08 A2973 RMK A01 T02040080  RH  045%=      5-min Rain = 0
KWE1 181820Z 22012KT 21/08 A2973 RMK A01 T02060083  RH  045%=      5-min Rain = 0
KWE1 181821Z 21014KT 21/08 A2973 RMK A01 T02060079  RH  044%=      5-min Rain = 0
KWE1 181822Z 22011KT 21/08 A2972 RMK A01 T02050078  RH  044%=      5-min Rain = 0
KWE1 181823Z 22012KT 21/08 A2972 RMK A01 T02060080  RH  044%=      5-min Rain = 0
KWE1 181824Z 22012KT 21/08 A2972 RMK A01 T02070083  RH  045%=      5-min Rain = 0
KWE1 181825Z 23012KT 21/09 A2972 RMK A01 T02070086  RH  046%=      5-min Rain = 0
KWE1 181826Z 23013KT 21/08 A2972 RMK A01 T02090079  RH  043%=      5-min Rain = 0
KWE1 181827Z 22014KT 21/08 A2972 RMK A01 T02100079  RH  043%=      5-min Rain = 0
KWE1 181828Z 23015KT 21/08 A2972 RMK A01 T02100077  RH  042%=      5-min Rain = 0
KWE1 181829Z 23019KT 21/07 A2972 RMK A01 T02120072  RH  040%=      5-min Rain = 0
KWE1 181830Z 22016KT 21/07 A2972 RMK A01 T02130070  RH  040%=      5-min Rain = 0
KWE1 181831Z 22018KT 21/07 A2972 RMK A01 T02130070  RH  040%=      5-min Rain = 0
KWE1 181832Z 23015G20KT 21/07 A2972 RMK A01 T02140069  RH  039%=      5-min Rain = 0
KWE1 181833Z 23017KT 21/07 A2972 RMK A01 T02140068  RH  039%=      5-min Rain = 0
KWE1 181834Z 23015KT 21/07 A2972 RMK A01 T02140068  RH  039%=      5-min Rain = 0
KWE1 181835Z 23016G22KT 22/07 A2971 RMK A01 T02150068  RH  039%=      5-min Rain = 0
KWE1 181836Z 22018G23KT 22/07 A2971 RMK A01 T02160066  RH  038%=      5-min Rain = 0
KWE1 181837Z 23016KT 22/07 A2971 RMK A01 T02150066  RH  038%=      5-min Rain = 0
KWE1 181838Z 23014KT 22/07 A2971 RMK A01 T02150066  RH  038%=      5-min Rain = 0
KWE1 181839Z 23013KT 22/07 A2971 RMK A01 T02150067  RH  038%=      5-min Rain = 0
KWE1 181840Z 23014KT 22/07 A2971 RMK A01 T02150072  RH  040%=      5-min Rain = 0
KWE1 181841Z 24016KT 22/07 A297 RMK A01 T02160068  RH  038%=      5-min Rain = 0
KWE1 181842Z 23015KT 22/07 A297 RMK A01 T02160067  RH  038%=      5-min Rain = 0
KWE1 181843Z 23015KT 22/07 A297 RMK A01 T02170067  RH  038%=      5-min Rain = 0
KWE1 181844Z 22013KT 22/07 A297 RMK A01 T02160068  RH  038%=      5-min Rain = 0
KWE1 181845Z 22014KT 22/07 A297 RMK A01 T02170069  RH  038%=      5-min Rain = 0
KWE1 181846Z 23014KT 22/07 A2969 RMK A01 T02170068  RH  038%=      5-min Rain = 0
KWE1 181847Z 23011KT 22/07 A2969 RMK A01 T02170068  RH  038%=      5-min Rain = 0
KWE1 181848Z 22009KT 22/07 A2969 RMK A01 T02180073  RH  039%=      5-min Rain = 0
KWE1 181849Z 22013KT 22/07 A2969 RMK A01 T02190074  RH  039%=      5-min Rain = 0
KWE1 181850Z 22012KT 22/07 A2969 RMK A01 T02200074  RH  039%=      5-min Rain = 0
KWE1 181851Z 24012KT 22/07 A2969 RMK A01 T02200073  RH  039%=      5-min Rain = 0
KWE1 181852Z 24012KT 22/07 A2969 RMK A01 T02200070  RH  038%=      5-min Rain = 0
KWE1 181853Z 24012KT 22/07 A2969 RMK A01 T02190069  RH  038%=      5-min Rain = 0
KWE1 181854Z 24011KT 22/07 A2969 RMK A01 T02190073  RH  039%=      5-min Rain = 0
KWE1 181855Z 23014KT 22/07 A2969 RMK A01 T02210069  RH  038%=      5-min Rain = 0
KWE1 181856Z 23013KT 22/07 A2969 RMK A01 T02210065  RH  036%=      5-min Rain = 0
KWE1 181857Z 23015KT 22/06 A2969 RMK A01 T02210064  RH  036%=      5-min Rain = 0
KWE1 181858Z 23010KT 22/07 A2968 RMK A01 T02210068  RH  037%=      5-min Rain = 0
KWE1 181859Z 22013KT 22/07 A2968 RMK A01 T02220070  RH  037%=      5-min Rain = 0
KWE1 181900Z 23011KT 22/07 A2968 RMK A01 T02220066  RH  036%=      5-min Rain = 0
KWE1 181901Z 23011KT 22/07 A2968 RMK A01 T02220070  RH  037%=      5-min Rain = 0
KWE1 181902Z 23014G19KT 22/07 A2968 RMK A01 T02240070  RH  037%=      5-min Rain = 0
KWE1 181903Z 23017G22KT 23/07 A2968 RMK A01 T02250065  RH  035%=      5-min Rain = 0
KWE1 181904Z 23016KT 23/06 A2968 RMK A01 T02250063  RH  035%=      5-min Rain = 0
KWE1 181905Z 23016KT 23/06 A2968 RMK A01 T02260064  RH  035%=      5-min Rain = 0
KWE1 181906Z 23018G24KT 23/06 A2967 RMK A01 T02270063  RH  035%=      5-min Rain = 0
KWE1 181907Z 23019KT 23/06 A2967 RMK A01 T02280059  RH  033%=      5-min Rain = 0
KWE1 181908Z 24016KT 23/06 A2967 RMK A01 T02280057  RH  033%=      5-min Rain = 0
KWE1 181909Z 23013KT 23/06 A2967 RMK A01 T02280060  RH  034%=      5-min Rain = 0
KWE1 181910Z 24014G20KT 23/07 A2967 RMK A01 T02300065  RH  034%=      5-min Rain = 0
KWE1 181911Z 25015KT 23/06 A2967 RMK A01 T02300061  RH  033%=      5-min Rain = 0
KWE1 181912Z 24016KT 23/06 A2967 RMK A01 T02300064  RH  034%=      5-min Rain = 0
KWE1 181913Z 24018KT 23/06 A2967 RMK A01 T02300060  RH  033%=      5-min Rain = 0
KWE1 181914Z 23016KT 23/06 A2967 RMK A01 T02290061  RH  034%=      5-min Rain = 0
KWE1 181915Z 24018G24KT 23/06 A2967 RMK A01 T02290061  RH  034%=      5-min Rain = 0
KWE1 181916Z 24017KT 23/06 A2966 RMK A01 T02290063  RH  034%=      5-min Rain = 0
KWE1 181917Z 24014KT 23/06 A2966 RMK A01 T02290061  RH  034%=      5-min Rain = 0
KWE1 181918Z 24018G23KT 23/06 A2966 RMK A01 T02290060  RH  033%=      5-min Rain = 0
KWE1 181919Z 24018G25KT 23/06 A2966 RMK A01 T02290057  RH  033%=      5-min Rain = 0
KWE1 181920Z 24018KT 23/06 A2966 RMK A01 T02280057  RH  033%=      5-min Rain = 0
KWE1 181921Z 24019KT 23/06 A2966 RMK A01 T02270055  RH  033%=      5-min Rain = 0
KWE1 181922Z 23018KT 22/05 A2966 RMK A01 T02240054  RH  033%=      5-min Rain = 0
KWE1 181923Z 24016G21KT 22/06 A2966 RMK A01 T02240056  RH  034%=      5-min Rain = 0
KWE1 181924Z 25017KT 22/06 A2966 RMK A01 T02240057  RH  034%=      5-min Rain = 0
KWE1 181925Z 24015G20KT 23/06 A2965 RMK A01 T02250059  RH  034%=      5-min Rain = 0
KWE1 181926Z 24017KT 23/06 A2965 RMK A01 T02260060  RH  034%=      5-min Rain = 0
KWE1 181927Z 24015G20KT 23/06 A2965 RMK A01 T02270059  RH  034%=      5-min Rain = 0
KWE1 181928Z 24018KT 23/06 A2965 RMK A01 T02270055  RH  033%=      5-min Rain = 0
KWE1 181929Z 24014KT 23/06 A2965 RMK A01 T02250055  RH  033%=      5-min Rain = 0
KWE1 181930Z 24013KT 23/06 A2965 RMK A01 T02250060  RH  034%=      5-min Rain = 0
KWE1 181931Z 24012KT 22/06 A2965 RMK A01 T02240061  RH  035%=      5-min Rain = 0
KWE1 181932Z 24014KT 22/06 A2965 RMK A01 T02240062  RH  035%=      5-min Rain = 0
KWE1 181933Z 24015G20KT 22/06 A2965 RMK A01 T02230061  RH  035%=      5-min Rain = 0
KWE1 181934Z 23017KT 22/06 A2964 RMK A01 T02220058  RH  035%=      5-min Rain = 0
KWE1 181935Z 23018KT 22/06 A2964 RMK A01 T02210057  RH  034%=      5-min Rain = 0
KWE1 181936Z 24018KT 22/06 A2964 RMK A01 T02210056  RH  034%=      5-min Rain = 0
KWE1 181937Z 24017KT 22/06 A2964 RMK A01 T02200056  RH  034%=      5-min Rain = 0
KWE1 181938Z 24018KT 22/05 A2964 RMK A01 T02200054  RH  034%=      5-min Rain = 0
KWE1 181939Z 24017KT 22/06 A2964 RMK A01 T02210055  RH  034%=      5-min Rain = 0
KWE1 181940Z 24015KT 22/06 A2964 RMK A01 T02210055  RH  034%=      5-min Rain = 0
KWE1 181941Z 24014KT 22/05 A2964 RMK A01 T02210054  RH  034%=      5-min Rain = 0
KWE1 181942Z 23015KT 22/06 A2964 RMK A01 T02220057  RH  034%=      5-min Rain = 0
KWE1 181943Z 24013KT 22/06 A2964 RMK A01 T02220059  RH  035%=      5-min Rain = 0
KWE1 181944Z 24014KT 22/06 A2964 RMK A01 T02220059  RH  035%=      5-min Rain = 0
KWE1 181945Z 24014KT 22/06 A2964 RMK A01 T02220059  RH  035%=      5-min Rain = 0
KWE1 181946Z 24014KT 22/06 A2964 RMK A01 T02240060  RH  035%=      5-min Rain = 0
KWE1 181947Z 24016KT 23/06 A2964 RMK A01 T02250056  RH  033%=      5-min Rain = 0
KWE1 181948Z 24017KT 23/06 A2964 RMK A01 T02250055  RH  033%=      5-min Rain = 0
KWE1 181949Z 24016KT 23/05 A2964 RMK A01 T02250054  RH  033%=      5-min Rain = 0
KWE1 181950Z 23018KT 23/05 A2964 RMK A01 T02250054  RH  033%=      5-min Rain = 0
KWE1 181951Z 24016KT 23/05 A2964 RMK A01 T02250053  RH  033%=      5-min Rain = 0
KWE1 181952Z 24015KT 23/05 A2964 RMK A01 T02250053  RH  033%=      5-min Rain = 0
KWE1 181953Z 24013KT 23/06 A2964 RMK A01 T02250055  RH  033%=      5-min Rain = 0
KWE1 181954Z 24014KT 23/06 A2964 RMK A01 T02250057  RH  034%=      5-min Rain = 0
KWE1 181955Z 24017KT 22/05 A2964 RMK A01 T02240054  RH  033%=      5-min Rain = 0
KWE1 181956Z 24014KT 22/05 A2964 RMK A01 T02240054  RH  033%=      5-min Rain = 0
KWE1 181957Z 24012KT 22/06 A2964 RMK A01 T02240056  RH  034%=      5-min Rain = 0
KWE1 181958Z 24014KT 22/06 A2963 RMK A01 T02240056  RH  034%=      5-min Rain = 0
KWE1 181959Z 24014KT 22/05 A2963 RMK A01 T02240052  RH  033%=      5-min Rain = 0
KWE1 182000Z 24012KT 22/06 A2963 RMK A01 T02240055  RH  033%=      5-min Rain = 0
KWE1 182001Z 24015KT 22/06 A2963 RMK A01 T02230056  RH  034%=      5-min Rain = 0
KWE1 182002Z 24014KT 22/06 A2963 RMK A01 T02220056  RH  034%=      5-min Rain = 0
KWE1 182003Z 24016KT 22/05 A2963 RMK A01 T02220053  RH  033%=      5-min Rain = 0
KWE1 182004Z 24014KT 22/05 A2963 RMK A01 T02220052  RH  033%=      5-min Rain = 0
KWE1 182005Z 24015KT 22/05 A2963 RMK A01 T02220052  RH  033%=      5-min Rain = 0
KWE1 182006Z 24013KT 22/05 A2963 RMK A01 T02220054  RH  034%=      5-min Rain = 0
KWE1 182007Z 24013KT 22/05 A2963 RMK A01 T02210053  RH  033%=      5-min Rain = 0
KWE1 182008Z 23014G19KT 22/05 A2963 RMK A01 T02220053  RH  033%=      5-min Rain = 0
KWE1 182009Z 23015KT 22/05 A2962 RMK A01 T02210051  RH  033%=      5-min Rain = 0
KWE1 182010Z 24014KT 22/05 A2962 RMK A01 T02210053  RH  034%=      5-min Rain = 0
KWE1 182011Z 24013KT 22/05 A2962 RMK A01 T02200051  RH  033%=      5-min Rain = 0
KWE1 182012Z 24011KT 22/05 A2962 RMK A01 T02200052  RH  033%=      5-min Rain = 0
KWE1 182013Z 24011KT 22/05 A2962 RMK A01 T02200052  RH  033%=      5-min Rain = 0
KWE1 182014Z 24010G18KT 22/05 A2962 RMK A01 T02210054  RH  034%=      5-min Rain = 0
KWE1 182015Z 24013KT 22/05 A2962 RMK A01 T02210054  RH  034%=      5-min Rain = 0
KWE1 182016Z 24012KT 22/05 A2963 RMK A01 T02210053  RH  033%=      5-min Rain = 0
KWE1 182017Z 24014KT 22/05 A2962 RMK A01 T02220052  RH  033%=      5-min Rain = 0
KWE1 182018Z 24014KT 22/05 A2962 RMK A01 T02220053  RH  033%=      5-min Rain = 0
KWE1 182019Z 24012KT 22/05 A2962 RMK A01 T02220054  RH  033%=      5-min Rain = 0
KWE1 182020Z 24010KT 22/06 A2962 RMK A01 T02220056  RH  034%=      5-min Rain = 0
KWE1 182021Z 23010KT 22/06 A2962 RMK A01 T02220057  RH  034%=      5-min Rain = 0
KWE1 182022Z 23010KT 22/06 A2962 RMK A01 T02220059  RH  035%=      5-min Rain = 0
KWE1 182023Z 23010KT 22/06 A2962 RMK A01 T02220058  RH  035%=      5-min Rain = 0
KWE1 182024Z 23011KT 22/06 A2962 RMK A01 T02220058  RH  034%=      5-min Rain = 0
KWE1 182025Z 23012KT 22/06 A2962 RMK A01 T02220056  RH  034%=      5-min Rain = 0
KWE1 182026Z 23013KT 22/05 A2962 RMK A01 T02220054  RH  034%=      5-min Rain = 0
KWE1 182027Z 24009KT 22/06 A2962 RMK A01 T02220057  RH  034%=      5-min Rain = 0
KWE1 182028Z 24010KT 22/06 A2962 RMK A01 T02220057  RH  034%=      5-min Rain = 0
KWE1 182029Z 24011KT 22/06 A2961 RMK A01 T02220055  RH  034%=      5-min Rain = 0
KWE1 182030Z 23012KT 22/05 A2961 RMK A01 T02230054  RH  033%=      5-min Rain = 0
KWE1 182031Z 24010KT 22/06 A2961 RMK A01 T02230055  RH  034%=      5-min Rain = 0
KWE1 182032Z 24011KT 22/05 A2961 RMK A01 T02230054  RH  033%=      5-min Rain = 0
KWE1 182033Z 24009KT 22/06 A2961 RMK A01 T02230056  RH  034%=      5-min Rain = 0
KWE1 182034Z 24009KT 22/06 A2961 RMK A01 T02230057  RH  034%=      5-min Rain = 0
KWE1 182035Z 23010KT 22/06 A296 RMK A01 T02230058  RH  034%=      5-min Rain = 0
KWE1 182036Z 24009KT 22/06 A296 RMK A01 T02230056  RH  034%=      5-min Rain = 0
KWE1 182037Z 23009KT 22/06 A296 RMK A01 T02230058  RH  034%=      5-min Rain = 0
KWE1 182038Z 23009KT 22/06 A296 RMK A01 T02240061  RH  035%=      5-min Rain = 0
KWE1 182039Z 22010KT 22/06 A296 RMK A01 T02240058  RH  034%=      5-min Rain = 0
KWE1 182040Z 23009KT 22/06 A296 RMK A01 T02240059  RH  034%=      5-min Rain = 0
KWE1 182041Z 23009KT 23/06 A296 RMK A01 T02250061  RH  035%=      5-min Rain = 0
KWE1 182042Z 23008KT 23/06 A296 RMK A01 T02250064  RH  035%=      5-min Rain = 0
KWE1 182043Z 23009KT 23/06 A296 RMK A01 T02250063  RH  035%=      5-min Rain = 0
KWE1 182044Z 23010KT 23/06 A296 RMK A01 T02250062  RH  035%=      5-min Rain = 0
KWE1 182045Z 23012KT 23/06 A296 RMK A01 T02250062  RH  035%=      5-min Rain = 0
KWE1 182046Z 23010KT 23/06 A296 RMK A01 T02250060  RH  034%=      5-min Rain = 0
KWE1 182047Z 23011KT 23/06 A296 RMK A01 T02260062  RH  035%=      5-min Rain = 0
KWE1 182048Z 22009KT 23/06 A296 RMK A01 T02260061  RH  034%=      5-min Rain = 0
KWE1 182049Z 23012KT 23/06 A296 RMK A01 T02270062  RH  035%=      5-min Rain = 0
KWE1 182050Z 23011KT 23/06 A296 RMK A01 T02270058  RH  033%=      5-min Rain = 0
KWE1 182051Z 23013KT 23/06 A296 RMK A01 T02270058  RH  033%=      5-min Rain = 0
KWE1 182052Z 22010KT 23/06 A296 RMK A01 T02270059  RH  034%=      5-min Rain = 0
KWE1 182053Z 23011KT 23/06 A296 RMK A01 T02270062  RH  034%=      5-min Rain = 0
KWE1 182054Z 24014KT 23/06 A2959 RMK A01 T02270060  RH  034%=      5-min Rain = 0
KWE1 182055Z 23013KT 23/06 A2959 RMK A01 T02270056  RH  033%=      5-min Rain = 0
KWE1 182056Z 23013KT 23/06 A2959 RMK A01 T02270057  RH  033%=      5-min Rain = 0
KWE1 182057Z 23015G20KT 23/06 A2959 RMK A01 T02280055  RH  033%=      5-min Rain = 0
KWE1 182058Z 24013KT 23/05 A2959 RMK A01 T02280054  RH  032%=      5-min Rain = 0
KWE1 182059Z 24013KT 23/06 A2959 RMK A01 T02280056  RH  033%=      5-min Rain = 0
KWE1 182100Z 24015KT 23/06 A2959 RMK A01 T02290057  RH  033%=      5-min Rain = 0
KWE1 182101Z 24015KT 23/05 A2959 RMK A01 T02300054  RH  032%=      5-min Rain = 0
KWE1 182102Z 24013KT 23/06 A2959 RMK A01 T02290055  RH  032%=      5-min Rain = 0
KWE1 182103Z 24016G21KT 23/05 A2959 RMK A01 T02300051  RH  031%=      5-min Rain = 0
KWE1 182104Z 24017KT 23/05 A2959 RMK A01 T02300047  RH  030%=      5-min Rain = 0
KWE1 182105Z 24015G20KT 23/05 A2958 RMK A01 T02310045  RH  030%=      5-min Rain = 0
KWE1 182106Z 24017G23KT 23/05 A2958 RMK A01 T02310045  RH  030%=      5-min Rain = 0
KWE1 182107Z 24016KT 23/05 A2958 RMK A01 T02310045  RH  030%=      5-min Rain = 0
KWE1 182108Z 23014KT 23/05 A2958 RMK A01 T02310045  RH  030%=      5-min Rain = 0
KWE1 182109Z 24014KT 23/05 A2958 RMK A01 T02310047  RH  030%=      5-min Rain = 0
KWE1 182110Z 24014KT 23/05 A2958 RMK A01 T02320046  RH  030%=      5-min Rain = 0
KWE1 182111Z 24014KT 23/05 A2958 RMK A01 T02330048  RH  030%=      5-min Rain = 0
KWE1 182112Z 24017G22KT 23/05 A2958 RMK A01 T02330045  RH  029%=      5-min Rain = 0
KWE1 182113Z 24017KT 23/04 A2958 RMK A01 T02340042  RH  029%=      5-min Rain = 0
KWE1 182114Z 24016G21KT 24/04 A2958 RMK A01 T02350044  RH  029%=      5-min Rain = 0
KWE1 182115Z 25015G20KT 24/04 A2958 RMK A01 T02350043  RH  029%=      5-min Rain = 0
KWE1 182116Z 25013KT 24/05 A2958 RMK A01 T02350047  RH  029%=      5-min Rain = 0
KWE1 182117Z 25014KT 24/05 A2958 RMK A01 T02360047  RH  029%=      5-min Rain = 0
KWE1 182118Z 24017KT 24/05 A2958 RMK A01 T02360046  RH  029%=      5-min Rain = 0
KWE1 182119Z 24015G20KT 24/04 A2958 RMK A01 T02360043  RH  029%=      5-min Rain = 0
KWE1 182120Z 25015KT 24/05 A2958 RMK A01 T02360046  RH  029%=      5-min Rain = 0
KWE1 182121Z 25015KT 24/05 A2958 RMK A01 T02370046  RH  029%=      5-min Rain = 0
KWE1 182122Z 25017G22KT 24/04 A2958 RMK A01 T02370044  RH  029%=      5-min Rain = 0
KWE1 182123Z 24017KT 24/04 A2958 RMK A01 T02370043  RH  028%=      5-min Rain = 0
KWE1 182124Z 24014KT 24/05 A2958 RMK A01 T02370045  RH  029%=      5-min Rain = 0
KWE1 182125Z 25014KT 24/05 A2958 RMK A01 T02380045  RH  029%=      5-min Rain = 0
KWE1 182126Z 26014G19KT 24/05 A2958 RMK A01 T02380048  RH  029%=      5-min Rain = 0
KWE1 182127Z 25011KT 24/05 A2958 RMK A01 T02380049  RH  029%=      5-min Rain = 0
KWE1 182128Z 24014G20KT 24/05 A2958 RMK A01 T02380050  RH  030%=      5-min Rain = 0
KWE1 182129Z 26017KT 24/05 A2958 RMK A01 T02380049  RH  029%=      5-min Rain = 0
KWE1 182130Z 26012KT 24/05 A2958 RMK A01 T02370050  RH  030%=      5-min Rain = 0
KWE1 182131Z 27013KT 24/05 A2959 RMK A01 T02360050  RH  030%=      5-min Rain = 0
KWE1 182132Z 26014KT 24/04 A2958 RMK A01 T02360044  RH  029%=      5-min Rain = 0
KWE1 182133Z 26016KT 24/04 A2959 RMK A01 T02360043  RH  028%=      5-min Rain = 0
KWE1 182134Z 27019G26KT 24/04 A2959 RMK A01 T02350036  RH  027%=      5-min Rain = 0
KWE1 182135Z 27021G26KT 24/03 A2959 RMK A01 T02350032  RH  026%=      5-min Rain = 0
KWE1 182136Z 27019KT 24/03 A2959 RMK A01 T02360032  RH  026%=      5-min Rain = 0
KWE1 182137Z 26015KT 24/03 A2959 RMK A01 T02370034  RH  027%=      5-min Rain = 0
KWE1 182138Z 26017G22KT 24/04 A2959 RMK A01 T02370036  RH  027%=      5-min Rain = 0
KWE1 182139Z 27016KT 24/03 A2959 RMK A01 T02370034  RH  027%=      5-min Rain = 0
KWE1 182140Z 26017KT 24/03 A2959 RMK A01 T02370034  RH  027%=      5-min Rain = 0
KWE1 182141Z 27016G21KT 24/04 A2959 RMK A01 T02370035  RH  027%=      5-min Rain = 0
KWE1 182142Z 26016G21KT 24/03 A2959 RMK A01 T02370034  RH  027%=      5-min Rain = 0
KWE1 182143Z 27015G20KT 24/03 A2959 RMK A01 T02370034  RH  027%=      5-min Rain = 0
KWE1 182144Z 26015G21KT 24/04 A2959 RMK A01 T02370036  RH  027%=      5-min Rain = 0
KWE1 182145Z 26017KT 24/04 A2959 RMK A01 T02360035  RH  027%=      5-min Rain = 0
KWE1 182146Z 26014G20KT 24/04 A2959 RMK A01 T02360039  RH  028%=      5-min Rain = 0
KWE1 182147Z 26019G24KT 24/04 A2959 RMK A01 T02360037  RH  027%=      5-min Rain = 0
KWE1 182148Z 26016G23KT 24/03 A2959 RMK A01 T02350032  RH  027%=      5-min Rain = 0
KWE1 182149Z 26017KT 24/04 A2959 RMK A01 T02360035  RH  027%=      5-min Rain = 0
KWE1 182150Z 27014KT 24/04 A2959 RMK A01 T02360036  RH  027%=      5-min Rain = 0
KWE1 182151Z 27016KT 24/04 A2959 RMK A01 T02360036  RH  027%=      5-min Rain = 0
KWE1 182152Z 27017G22KT 24/03 A2959 RMK A01 T02350033  RH  027%=      5-min Rain = 0
KWE1 182153Z 27017KT 24/03 A2959 RMK A01 T02360033  RH  027%=      5-min Rain = 0
KWE1 182154Z 27015G20KT 24/03 A2959 RMK A01 T02360034  RH  027%=      5-min Rain = 0
KWE1 182155Z 27018KT 24/03 A2959 RMK A01 T02350033  RH  027%=      5-min Rain = 0
KWE1 182156Z 27016KT 24/03 A2959 RMK A01 T02350033  RH  027%=      5-min Rain = 0
KWE1 182157Z 27017G22KT 23/03 A2959 RMK A01 T02340034  RH  027%=      5-min Rain = 0
KWE1 182158Z 26015KT 23/03 A2959 RMK A01 T02340033  RH  027%=      5-min Rain = 0
KWE1 182159Z 26014KT 23/04 A2959 RMK A01 T02330035  RH  028%=      5-min Rain = 0
KWE1 182200Z 26012KT 23/04 A2959 RMK A01 T02310036  RH  028%=      5-min Rain = 0
KWE1 182201Z 26013KT 23/04 A2959 RMK A01 T02300038  RH  029%=      5-min Rain = 0
KWE1 182202Z 26013KT 23/04 A2959 RMK A01 T02280038  RH  029%=      5-min Rain = 0
KWE1 182203Z 26013KT 23/04 A2959 RMK A01 T02270038  RH  029%=      5-min Rain = 0
KWE1 182204Z 26012KT 23/04 A2959 RMK A01 T02270037  RH  029%=      5-min Rain = 0
KWE1 182205Z 26014G19KT 23/04 A2959 RMK A01 T02270037  RH  029%=      5-min Rain = 0
KWE1 182206Z 26011KT 23/04 A296 RMK A01 T02260037  RH  029%=      5-min Rain = 0
KWE1 182207Z 26012G17KT 23/04 A2959 RMK A01 T02260037  RH  029%=      5-min Rain = 0
KWE1 182208Z 26013G19KT 23/04 A2959 RMK A01 T02260036  RH  029%=      5-min Rain = 0
KWE1 182209Z 26013KT 23/04 A296 RMK A01 T02260037  RH  029%=      5-min Rain = 0
KWE1 182210Z 27014KT 23/04 A296 RMK A01 T02250036  RH  029%=      5-min Rain = 0
KWE1 182211Z 26016G21KT 23/03 A2959 RMK A01 T02250034  RH  029%=      5-min Rain = 0
KWE1 182212Z 27016KT 23/03 A2959 RMK A01 T02260031  RH  028%=      5-min Rain = 0
KWE1 182213Z 27014KT 23/03 A2959 RMK A01 T02270030  RH  027%=      5-min Rain = 0
KWE1 182214Z 27014KT 23/03 A2959 RMK A01 T02270032  RH  028%=      5-min Rain = 0
KWE1 182215Z 27015KT 23/03 A2959 RMK A01 T02270031  RH  028%=      5-min Rain = 0
KWE1 182216Z 26013G18KT 23/03 A2959 RMK A01 T02260033  RH  028%=      5-min Rain = 0
KWE1 182217Z 26015KT 23/03 A2959 RMK A01 T02250032  RH  028%=      5-min Rain = 0
KWE1 182218Z 26016G21KT 23/03 A2959 RMK A01 T02260030  RH  028%=      5-min Rain = 0
KWE1 182219Z 26018G25KT 23/03 A2959 RMK A01 T02260028  RH  027%=      5-min Rain = 0
KWE1 182220Z 26018KT 23/03 A2959 RMK A01 T02260027  RH  027%=      5-min Rain = 0
KWE1 182221Z 27017KT 23/03 A2959 RMK A01 T02260027  RH  027%=      5-min Rain = 0
KWE1 182222Z 27016KT 23/03 A2959 RMK A01 T02260027  RH  027%=      5-min Rain = 0
KWE1 182223Z 26015G21KT 23/03 A296 RMK A01 T02250029  RH  028%=      5-min Rain = 0
KWE1 182224Z 27014G20KT 22/03 A2959 RMK A01 T02240029  RH  028%=      5-min Rain = 0
KWE1 182225Z 27014KT 22/03 A296 RMK A01 T02240030  RH  028%=      5-min Rain = 0
KWE1 182226Z 27017G23KT 22/03 A296 RMK A01 T02230029  RH  028%=      5-min Rain = 0
KWE1 182227Z 27016KT 22/03 A296 RMK A01 T02230028  RH  028%=      5-min Rain = 0
KWE1 182228Z 27016KT 22/03 A296 RMK A01 T02230028  RH  028%=      5-min Rain = 0
KWE1 182229Z 27015KT 22/03 A2959 RMK A01 T02230028  RH  028%=      5-min Rain = 0
KWE1 182230Z 27012KT 22/03 A296 RMK A01 T02230031  RH  028%=      5-min Rain = 0
KWE1 182231Z 26016KT 22/03 A296 RMK A01 T02210031  RH  029%=      5-min Rain = 0
KWE1 182232Z 27014KT 22/03 A296 RMK A01 T02210030  RH  029%=      5-min Rain = 0
KWE1 182233Z 27014KT 22/03 A296 RMK A01 T02210031  RH  029%=      5-min Rain = 0
KWE1 182234Z 27015KT 22/03 A296 RMK A01 T02200029  RH  028%=      5-min Rain = 0
KWE1 182235Z 27015KT 22/03 A296 RMK A01 T02210029  RH  028%=      5-min Rain = 0
KWE1 182236Z 27016G21KT 22/03 A296 RMK A01 T02210029  RH  028%=      5-min Rain = 0
KWE1 182237Z 26015G20KT 22/03 A296 RMK A01 T02210029  RH  028%=      5-min Rain = 0
KWE1 182238Z 26014G23KT 22/03 A296 RMK A01 T02200029  RH  028%=      5-min Rain = 0
KWE1 182239Z 27013G18KT 22/03 A296 RMK A01 T02200029  RH  029%=      5-min Rain = 0
KWE1 182240Z 27015KT 22/03 A296 RMK A01 T02190029  RH  029%=      5-min Rain = 0
KWE1 182241Z 27016KT 22/03 A296 RMK A01 T02190028  RH  028%=      5-min Rain = 0
KWE1 182242Z 26015KT 22/03 A296 RMK A01 T02190027  RH  028%=      5-min Rain = 0
KWE1 182243Z 27013KT 22/03 A296 RMK A01 T02190027  RH  028%=      5-min Rain = 0
KWE1 182244Z 26012G17KT 22/03 A296 RMK A01 T02190029  RH  029%=      5-min Rain = 0
KWE1 182245Z 27012KT 22/03 A296 RMK A01 T02190028  RH  029%=      5-min Rain = 0
KWE1 182246Z 27012KT 22/03 A296 RMK A01 T02180030  RH  029%=      5-min Rain = 0
KWE1 182247Z 27013G18KT 22/03 A296 RMK A01 T02170030  RH  029%=      5-min Rain = 0
KWE1 182248Z 27013KT 22/03 A296 RMK A01 T02160031  RH  030%=      5-min Rain = 0
KWE1 182249Z 26012KT 22/03 A296 RMK A01 T02150031  RH  030%=      5-min Rain = 0
KWE1 182250Z 26013KT 21/03 A296 RMK A01 T02140032  RH  030%=      5-min Rain = 0
KWE1 182251Z 26012KT 22/03 A296 RMK A01 T02150032  RH  030%=      5-min Rain = 0
KWE1 182252Z 27012KT 21/03 A296 RMK A01 T02130033  RH  030%=      5-min Rain = 0
KWE1 182253Z 27012KT 21/03 A296 RMK A01 T02130032  RH  030%=      5-min Rain = 0
KWE1 182254Z 27012G18KT 21/03 A2961 RMK A01 T02130032  RH  030%=      5-min Rain = 0
KWE1 182255Z 27012G17KT 21/03 A296 RMK A01 T02130030  RH  030%=      5-min Rain = 0
KWE1 182256Z 27011KT 21/03 A2961 RMK A01 T02130032  RH  030%=      5-min Rain = 0
KWE1 182257Z 27011KT 21/03 A296 RMK A01 T02130032  RH  030%=      5-min Rain = 0
KWE1 182258Z 28013KT 21/03 A296 RMK A01 T02120029  RH  030%=      5-min Rain = 0
KWE1 182259Z 28011KT 21/03 A296 RMK A01 T02130029  RH  030%=      5-min Rain = 0
KWE1 182300Z 27012KT 21/03 A296 RMK A01 T02130028  RH  030%=      5-min Rain = 0
KWE1 182301Z 27011KT 21/03 A296 RMK A01 T02130026  RH  029%=      5-min Rain = 0
KWE1 182302Z 28012KT 21/03 A296 RMK A01 T02130027  RH  029%=      5-min Rain = 0
KWE1 182303Z 27011KT 21/03 A296 RMK A01 T02130026  RH  029%=      5-min Rain = 0
KWE1 182304Z 28013KT 21/02 A296 RMK A01 T02130024  RH  029%=      5-min Rain = 0
KWE1 182305Z 28014KT 21/02 A296 RMK A01 T02130023  RH  029%=      5-min Rain = 0
KWE1 182306Z 28016KT 21/02 A296 RMK A01 T02130022  RH  028%=      5-min Rain = 0
KWE1 182307Z 27016KT 21/02 A296 RMK A01 T02130021  RH  028%=      5-min Rain = 0
KWE1 182308Z 28017KT 21/02 A296 RMK A01 T02140020  RH  028%=      5-min Rain = 0
KWE1 182309Z 28015KT 21/02 A296 RMK A01 T02140020  RH  028%=      5-min Rain = 0
KWE1 182310Z 28016G21KT 21/02 A296 RMK A01 T02140021  RH  028%=      5-min Rain = 0
KWE1 182311Z 28016KT 21/02 A296 RMK A01 T02140020  RH  028%=      5-min Rain = 0
KWE1 182312Z 28015KT 21/02 A296 RMK A01 T02140020  RH  028%=      5-min Rain = 0
KWE1 182313Z 27016G22KT 21/02 A296 RMK A01 T02140020  RH  028%=      5-min Rain = 0
KWE1 182314Z 28017KT 21/02 A296 RMK A01 T02140019  RH  027%=      5-min Rain = 0
KWE1 182315Z 27016KT 21/02 A296 RMK A01 T02140019  RH  028%=      5-min Rain = 0
KWE1 182316Z 27017KT 21/02 A296 RMK A01 T02140019  RH  028%=      5-min Rain = 0
KWE1 182317Z 27015KT 21/02 A296 RMK A01 T02140019  RH  028%=      5-min Rain = 0
KWE1 182318Z 27017KT 21/02 A296 RMK A01 T02140020  RH  028%=      5-min Rain = 0
KWE1 182319Z 27015G20KT 21/02 A296 RMK A01 T02130020  RH  028%=      5-min Rain = 0
KWE1 182320Z 27015G20KT 21/02 A2961 RMK A01 T02130020  RH  028%=      5-min Rain = 0
KWE1 182321Z 26015KT 21/02 A296 RMK A01 T02130021  RH  028%=      5-min Rain = 0
KWE1 182322Z 27014KT 21/02 A296 RMK A01 T02120023  RH  029%=      5-min Rain = 0
KWE1 182323Z 26013KT 21/02 A2961 RMK A01 T02110023  RH  029%=      5-min Rain = 0
KWE1 182324Z 26016G22KT 21/02 A296 RMK A01 T02100022  RH  029%=      5-min Rain = 0
KWE1 182325Z 26015KT 21/02 A296 RMK A01 T02110022  RH  029%=      5-min Rain = 0
KWE1 182326Z 26015KT 21/02 A296 RMK A01 T02110022  RH  029%=      5-min Rain = 0
KWE1 182327Z 26014KT 21/02 A2961 RMK A01 T02110023  RH  029%=      5-min Rain = 0
KWE1 182328Z 26013G18KT 21/02 A2961 RMK A01 T02100024  RH  029%=      5-min Rain = 0
KWE1 182329Z 26012KT 21/02 A2961 RMK A01 T02090024  RH  029%=      5-min Rain = 0
KWE1 182330Z 26014KT 21/02 A2961 RMK A01 T02090024  RH  029%=      5-min Rain = 0
KWE1 182331Z 26013KT 21/03 A2961 RMK A01 T02080025  RH  030%=      5-min Rain = 0
KWE1 182332Z 26013KT 21/03 A2961 RMK A01 T02080025  RH  030%=      5-min Rain = 0
KWE1 182333Z 26012KT 21/03 A2961 RMK A01 T02080025  RH  030%=      5-min Rain = 0
KWE1 182334Z 26014KT 21/03 A2961 RMK A01 T02070026  RH  030%=      5-min Rain = 0
KWE1 182335Z 26012KT 21/03 A2961 RMK A01 T02070025  RH  030%=      5-min Rain = 0
KWE1 182336Z 26012KT 21/03 A2961 RMK A01 T02070026  RH  030%=      5-min Rain = 0
KWE1 182337Z 26011G18KT 21/03 A2961 RMK A01 T02050028  RH  031%=      5-min Rain = 0
KWE1 182338Z 26011KT 20/03 A2961 RMK A01 T02040028  RH  031%=      5-min Rain = 0
KWE1 182339Z 26011KT 20/03 A2961 RMK A01 T02040029  RH  031%=      5-min Rain = 0
KWE1 182340Z 26011G16KT 20/03 A2961 RMK A01 T02030029  RH  032%=      5-min Rain = 0
KWE1 182341Z 26010KT 20/03 A2961 RMK A01 T02020029  RH  032%=      5-min Rain = 0
KWE1 182342Z 26009KT 20/03 A2961 RMK A01 T02020030  RH  032%=      5-min Rain = 0
KWE1 182343Z 25010KT 20/03 A2961 RMK A01 T02010031  RH  033%=      5-min Rain = 0
KWE1 182344Z 26009KT 20/03 A2961 RMK A01 T02000030  RH  032%=      5-min Rain = 0
KWE1 182345Z 26011KT 20/03 A2961 RMK A01 T02000031  RH  033%=      5-min Rain = 0
KWE1 182346Z 26013KT 20/03 A2961 RMK A01 T02000029  RH  032%=      5-min Rain = 0
KWE1 182347Z 26012KT 20/03 A2961 RMK A01 T02010027  RH  032%=      5-min Rain = 0
KWE1 182348Z 26011KT 20/03 A2961 RMK A01 T02020029  RH  032%=      5-min Rain = 0
KWE1 182349Z 26011KT 20/03 A2961 RMK A01 T02020028  RH  032%=      5-min Rain = 0
KWE1 182350Z 26012G17KT 20/03 A2961 RMK A01 T02020029  RH  032%=      5-min Rain = 0
KWE1 182351Z 26012KT 20/03 A2961 RMK A01 T02020028  RH  032%=      5-min Rain = 0
KWE1 182352Z 25011G17KT 20/03 A2961 RMK A01 T02020030  RH  032%=      5-min Rain = 0
KWE1 182353Z 25012KT 20/03 A2961 RMK A01 T02020029  RH  032%=      5-min Rain = 0
KWE1 182354Z 26015G20KT 20/03 A2961 RMK A01 T02020029  RH  032%=      5-min Rain = 0
KWE1 182355Z 26013KT 20/03 A2961 RMK A01 T02020028  RH  031%=      5-min Rain = 0
KWE1 182356Z 25013KT 20/03 A2961 RMK A01 T02030029  RH  032%=      5-min Rain = 0
KWE1 182357Z 25012KT 20/03 A2961 RMK A01 T02020029  RH  032%=      5-min Rain = 0
KWE1 182358Z 25013KT 20/03 A2961 RMK A01 T02020030  RH  032%=      5-min Rain = 0
KWE1 182359Z 26012KT 20/03 A2961 RMK A01 T02020030  RH  032%=      5-min Rain = 0
KWE1 190000Z 25011KT 20/03 A2961 RMK A01 T02020030  RH  032%=      5-min Rain = 0
KWE1 190001Z 25012KT 20/03 A2961 RMK A01 T02010031  RH  033%=      5-min Rain = 0
KWE1 190002Z 26011KT 20/03 A2961 RMK A01 T02000031  RH  033%=      5-min Rain = 0
KWE1 190003Z 26011KT 20/03 A2961 RMK A01 T02000031  RH  033%=      5-min Rain = 0
KWE1 190004Z 26012KT 20/03 A2961 RMK A01 T01990031  RH  033%=      5-min Rain = 0
KWE1 190005Z 26013G18KT 20/03 A2961 RMK A01 T01990030  RH  032%=      5-min Rain = 0
KWE1 190006Z 26013KT 20/03 A2961 RMK A01 T02000030  RH  032%=      5-min Rain = 0
KWE1 190007Z 26011KT 20/03 A2961 RMK A01 T02000031  RH  032%=      5-min Rain = 0
KWE1 190008Z 26010KT 20/03 A2961 RMK A01 T01990033  RH  033%=      5-min Rain = 0
KWE1 190009Z 26011G16KT 20/03 A2962 RMK A01 T01980033  RH  034%=      5-min Rain = 0
KWE1 190010Z 26011KT 20/03 A2962 RMK A01 T01980033  RH  034%=      5-min Rain = 0
KWE1 190011Z 26011KT 20/03 A2962 RMK A01 T01970033  RH  034%=      5-min Rain = 0
KWE1 190012Z 26011KT 20/03 A2962 RMK A01 T01970032  RH  034%=      5-min Rain = 0
KWE1 190013Z 26012KT 20/03 A2962 RMK A01 T01970033  RH  034%=      5-min Rain = 0
KWE1 190014Z 26010KT 20/03 A2962 RMK A01 T01960034  RH  034%=      5-min Rain = 0
KWE1 190015Z 26010KT 20/03 A2962 RMK A01 T01960034  RH  034%=      5-min Rain = 0
KWE1 190016Z 26011KT 20/03 A2962 RMK A01 T01950034  RH  035%=      5-min Rain = 0
KWE1 190017Z 26010KT 19/03 A2962 RMK A01 T01940034  RH  035%=      5-min Rain = 0
KWE1 190018Z 26010KT 19/03 A2962 RMK A01 T01940034  RH  035%=      5-min Rain = 0
KWE1 190019Z 26011KT 19/03 A2962 RMK A01 T01930034  RH  035%=      5-min Rain = 0
KWE1 190020Z 26011KT 19/03 A2962 RMK A01 T01940032  RH  034%=      5-min Rain = 0
KWE1 190021Z 26010KT 19/03 A2962 RMK A01 T01940033  RH  034%=      5-min Rain = 0
KWE1 190022Z 26012KT 19/03 A2962 RMK A01 T01940033  RH  034%=      5-min Rain = 0
KWE1 190023Z 26012KT 19/03 A2962 RMK A01 T01940032  RH  034%=      5-min Rain = 0
KWE1 190024Z 26011KT 20/03 A2962 RMK A01 T01950031  RH  034%=      5-min Rain = 0
KWE1 190025Z 26012KT 20/03 A2962 RMK A01 T01950032  RH  034%=      5-min Rain = 0
KWE1 190026Z 27014KT 20/03 A2962 RMK A01 T01960031  RH  033%=      5-min Rain = 0
KWE1 190027Z 27013KT 20/03 A2962 RMK A01 T01970031  RH  033%=      5-min Rain = 0
KWE1 190028Z 26012G17KT 20/03 A2962 RMK A01 T01970031  RH  033%=      5-min Rain = 0
KWE1 190029Z 26012KT 20/03 A2962 RMK A01 T01970032  RH  034%=      5-min Rain = 0
KWE1 190030Z 26015G21KT 20/03 A2962 RMK A01 T01970033  RH  034%=      5-min Rain = 0
KWE1 190031Z 26018KT 20/03 A2962 RMK A01 T01970031  RH  033%=      5-min Rain = 0
KWE1 190032Z 26015KT 20/03 A2962 RMK A01 T01990030  RH  033%=      5-min Rain = 0
KWE1 190033Z 26014G21KT 20/03 A2962 RMK A01 T01990031  RH  033%=      5-min Rain = 0
KWE1 190034Z 26015G20KT 20/03 A2962 RMK A01 T01990032  RH  033%=      5-min Rain = 0
KWE1 190035Z 26018G25KT 20/03 A2962 RMK A01 T01980031  RH  033%=      5-min Rain = 0
KWE1 190036Z 26017KT 20/03 A2962 RMK A01 T01980030  RH  033%=      5-min Rain = 0
KWE1 190037Z 26016KT 20/03 A2962 RMK A01 T01990030  RH  033%=      5-min Rain = 0
KWE1 190038Z 26016G22KT 20/03 A2962 RMK A01 T01990031  RH  033%=      5-min Rain = 0
KWE1 190039Z 26020G28KT 20/03 A2962 RMK A01 T01990030  RH  033%=      5-min Rain = 0
KWE1 190040Z 26020G27KT 20/03 A2962 RMK A01 T01990026  RH  032%=      5-min Rain = 0
KWE1 190041Z 26021KT 20/02 A2962 RMK A01 T02010021  RH  030%=      5-min Rain = 0
KWE1 190042Z 26021G28KT 20/02 A2962 RMK A01 T02020021  RH  030%=      5-min Rain = 0
KWE1 190043Z 26019G27KT 20/02 A2962 RMK A01 T02030020  RH  030%=      5-min Rain = 0
KWE1 190044Z 26019G26KT 20/02 A2963 RMK A01 T02030021  RH  030%=      5-min Rain = 0
KWE1 190045Z 26019KT 20/02 A2962 RMK A01 T02020022  RH  030%=      5-min Rain = 0
KWE1 190046Z 26017KT 20/02 A2963 RMK A01 T02020023  RH  030%=      5-min Rain = 0
KWE1 190047Z 26016G22KT 20/02 A2963 RMK A01 T02010024  RH  031%=      5-min Rain = 0
KWE1 190048Z 26016G25KT 20/03 A2963 RMK A01 T02000025  RH  031%=      5-min Rain = 0
KWE1 190049Z 26018KT 20/02 A2963 RMK A01 T01990024  RH  031%=      5-min Rain = 0
KWE1 190050Z 26020KT 20/02 A2963 RMK A01 T01990023  RH  031%=      5-min Rain = 0
KWE1 190051Z 27023G28KT 20/02 A2964 RMK A01 T01990020  RH  030%=      5-min Rain = 0
KWE1 190052Z 28020G26KT 20/02 A2964 RMK A01 T02000016  RH  029%=      5-min Rain = 0
KWE1 190053Z 29021KT 20/02 A2964 RMK A01 T02000016  RH  029%=      5-min Rain = 0
KWE1 190054Z 29028G35KT 20/01 A2963 RMK A01 T01990010  RH  028%=      5-min Rain = 0
KWE1 190055Z 28025G30KT 20/00 A2963 RMK A01 T02030004  RH  026%=      5-min Rain = 0
KWE1 190056Z 26020G25KT 21/01 A2963 RMK A01 T02050005  RH  026%=      5-min Rain = 0
KWE1 190057Z 28017G22KT 21/01 A2964 RMK A01 T02050007  RH  027%=      5-min Rain = 0
KWE1 190058Z 27019G28KT 20/01 A2964 RMK A01 T02030010  RH  028%=      5-min Rain = 0
KWE1 190059Z 27023KT 20/01 A2964 RMK A01 T02020007  RH  027%=      5-min Rain = 0
KWE1 190100Z 27018KT 20/01 A2964 RMK A01 T02030007  RH  027%=      5-min Rain = 0
KWE1 190101Z 27018G24KT 20/01 A2964 RMK A01 T02030008  RH  027%=      5-min Rain = 0
KWE1 190102Z 26017KT 20/01 A2965 RMK A01 T02020009  RH  028%=      5-min Rain = 0
KWE1 190103Z 26019G25KT 20/01 A2965 RMK A01 T02000010  RH  028%=      5-min Rain = 0
KWE1 190104Z 26025G37KT 20/02 A2965 RMK A01 T01980015  RH  029%=      5-min Rain = 0
KWE1 190105Z 27028G37KT 19/02 A2965 RMK A01 T01940021  RH  032%=      5-min Rain = 0
KWE1 190106Z 27029G41KT 19/02 A2965 RMK A01 T01900019  RH  032%=      5-min Rain = 0
KWE1 190107Z 26022G27KT 19/02 A2966 RMK A01 T01880023  RH  033%=      5-min Rain = 0
KWE1 190108Z 26026G34KT 19/02 A2966 RMK A01 T01860023  RH  034%=      5-min Rain = 0
KWE1 190109Z 28020G29KT 19/02 A2965 RMK A01 T01870020  RH  033%=      5-min Rain = 0
KWE1 190110Z 25019G24KT 19/02 A2964 RMK A01 T01850024  RH  034%=      5-min Rain = 0
KWE1 190111Z 24023G29KT 18/02 A2963 RMK A01 T01830022  RH  034%=      5-min Rain = 0
KWE1 190112Z 23019KT 19/02 A2963 RMK A01 T01850022  RH  034%=      5-min Rain = 0
KWE1 190113Z 23016KT 18/03 A2963 RMK A01 T01820030  RH  036%=      5-min Rain = 0
KWE1 190114Z 24015KT 18/03 A2964 RMK A01 T01780033  RH  038%=      5-min Rain = 0
KWE1 190115Z 25016G21KT 18/03 A2964 RMK A01 T01760029  RH  037%=      5-min Rain = 0
KWE1 190116Z 24020G27KT 18/02 A2964 RMK A01 T01800022  RH  035%=      5-min Rain = 0
KWE1 190117Z 23017KT 18/03 A2964 RMK A01 T01840025  RH  035%=      5-min Rain = 0
KWE1 190118Z 24016KT 18/03 A2964 RMK A01 T01820027  RH  036%=      5-min Rain = 0
KWE1 190119Z 24018KT 18/03 A2964 RMK A01 T01800027  RH  036%=      5-min Rain = 0
KWE1 190120Z 24018KT 18/03 A2964 RMK A01 T01790025  RH  036%=      5-min Rain = 0
KWE1 190121Z 24017KT 18/02 A2964 RMK A01 T01800023  RH  035%=      5-min Rain = 0
KWE1 190122Z 24014KT 18/03 A2964 RMK A01 T01810025  RH  035%=      5-min Rain = 0
KWE1 190123Z 24017KT 18/03 A2964 RMK A01 T01790026  RH  036%=      5-min Rain = 0
KWE1 190124Z 24015G20KT 18/03 A2964 RMK A01 T01780027  RH  036%=      5-min Rain = 0
KWE1 190125Z 24015KT 18/03 A2964 RMK A01 T01770028  RH  037%=      5-min Rain = 0
KWE1 190126Z 24014KT 18/03 A2964 RMK A01 T01750029  RH  038%=      5-min Rain = 0
KWE1 190127Z 24015KT 18/03 A2964 RMK A01 T01750029  RH  038%=      5-min Rain = 0
KWE1 190128Z 24015KT 18/03 A2964 RMK A01 T01750030  RH  038%=      5-min Rain = 0
KWE1 190129Z 24013KT 18/03 A2964 RMK A01 T01750031  RH  038%=      5-min Rain = 0
KWE1 190130Z 24014G20KT 17/03 A2964 RMK A01 T01730031  RH  039%=      5-min Rain = 0
KWE1 190131Z 24014KT 17/03 A2964 RMK A01 T01730030  RH  038%=      5-min Rain = 0
KWE1 190132Z 23013KT 17/03 A2964 RMK A01 T01740031  RH  038%=      5-min Rain = 0
KWE1 190133Z 24014G19KT 17/03 A2963 RMK A01 T01730033  RH  039%=      5-min Rain = 0
KWE1 190134Z 23013KT 17/03 A2964 RMK A01 T01720034  RH  040%=      5-min Rain = 0
KWE1 190135Z 23014KT 17/03 A2964 RMK A01 T01710034  RH  040%=      5-min Rain = 0
KWE1 190136Z 23013KT 17/04 A2964 RMK A01 T01710035  RH  040%=      5-min Rain = 0
KWE1 190137Z 23014KT 17/03 A2964 RMK A01 T01700034  RH  040%=      5-min Rain = 0
KWE1 190138Z 23014KT 17/03 A2964 RMK A01 T01700034  RH  040%=      5-min Rain = 0
KWE1 190139Z 23015KT 17/03 A2964 RMK A01 T01700034  RH  040%=      5-min Rain = 0
KWE1 190140Z 23014KT 17/03 A2965 RMK A01 T01700034  RH  040%=      5-min Rain = 0
KWE1 190141Z 23015KT 17/03 A2965 RMK A01 T01690034  RH  040%=      5-min Rain = 0
KWE1 190142Z 23015KT 17/03 A2965 RMK A01 T01700034  RH  040%=      5-min Rain = 0
KWE1 190143Z 23015KT 17/03 A2965 RMK A01 T01690034  RH  041%=      5-min Rain = 0
KWE1 190144Z 23017KT 17/03 A2965 RMK A01 T01690033  RH  040%=      5-min Rain = 0
KWE1 190145Z 23016KT 17/03 A2965 RMK A01 T01690033  RH  040%=      5-min Rain = 0
KWE1 190146Z 24018KT 17/03 A2965 RMK A01 T01690032  RH  040%=      5-min Rain = 0
KWE1 190147Z 24017KT 17/03 A2966 RMK A01 T01700032  RH  040%=      5-min Rain = 0
KWE1 190148Z 24016KT 17/03 A2966 RMK A01 T01700032  RH  040%=      5-min Rain = 0
KWE1 190149Z 24018KT 17/03 A2966 RMK A01 T01700031  RH  039%=      5-min Rain = 0
KWE1 190150Z 23017KT 17/03 A2966 RMK A01 T01710031  RH  039%=      5-min Rain = 0
KWE1 190151Z 23015KT 17/03 A2966 RMK A01 T01710032  RH  039%=      5-min Rain = 0
KWE1 190152Z 24016KT 17/03 A2966 RMK A01 T01700033  RH  040%=      5-min Rain = 0
KWE1 190153Z 24015KT 17/03 A2966 RMK A01 T01700032  RH  040%=      5-min Rain = 0
KWE1 190154Z 23016KT 17/03 A2966 RMK A01 T01690032  RH  040%=      5-min Rain = 0
KWE1 190155Z 24019KT 17/03 A2966 RMK A01 T01690032  RH  040%=      5-min Rain = 0
KWE1 190156Z 24015G22KT 17/03 A2966 RMK A01 T01690032  RH  040%=      5-min Rain = 0
KWE1 190157Z 23017G22KT 17/03 A2966 RMK A01 T01690033  RH  040%=      5-min Rain = 0
KWE1 190158Z 24018KT 17/03 A2966 RMK A01 T01690032  RH  040%=      5-min Rain = 0
KWE1 190159Z 24018KT 17/03 A2966 RMK A01 T01690033  RH  040%=      5-min Rain = 0
KWE1 190200Z 24017KT 17/03 A2966 RMK A01 T01690033  RH  040%=      5-min Rain = 0
KWE1 190201Z 23017KT 17/03 A2966 RMK A01 T01690034  RH  041%=      5-min Rain = 0
KWE1 190202Z 23014KT 17/04 A2966 RMK A01 T01680036  RH  041%=      5-min Rain = 0
KWE1 190203Z 23016G22KT 17/04 A2966 RMK A01 T01670036  RH  042%=      5-min Rain = 0
KWE1 190204Z 24015KT 17/04 A2966 RMK A01 T01660036  RH  042%=      5-min Rain = 0
KWE1 190205Z 24015KT 17/04 A2965 RMK A01 T01670036  RH  042%=      5-min Rain = 0
KWE1 190206Z 23015KT 17/04 A2965 RMK A01 T01660036  RH  042%=      5-min Rain = 0
KWE1 190207Z 23016G21KT 17/04 A2965 RMK A01 T01660037  RH  042%=      5-min Rain = 0
KWE1 190208Z 24014KT 17/04 A2965 RMK A01 T01660036  RH  042%=      5-min Rain = 0
KWE1 190209Z 24012KT 17/04 A2964 RMK A01 T01660037  RH  042%=      5-min Rain = 0
KWE1 190210Z 24013KT 17/04 A2964 RMK A01 T01650038  RH  043%=      5-min Rain = 0
KWE1 190211Z 24015KT 16/04 A2965 RMK A01 T01640038  RH  043%=      5-min Rain = 0
KWE1 190212Z 24014KT 16/04 A2965 RMK A01 T01640038  RH  043%=      5-min Rain = 0
KWE1 190213Z 24014KT 16/04 A2965 RMK A01 T01640038  RH  043%=      5-min Rain = 0
KWE1 190214Z 24012KT 16/04 A2965 RMK A01 T01640038  RH  043%=      5-min Rain = 0
KWE1 190215Z 24013KT 16/04 A2965 RMK A01 T01640038  RH  043%=      5-min Rain = 0
KWE1 190216Z 24011KT 16/04 A2965 RMK A01 T01630039  RH  044%=      5-min Rain = 0
KWE1 190217Z 24012KT 16/04 A2965 RMK A01 T01620039  RH  044%=      5-min Rain = 0
KWE1 190218Z 25011KT 16/04 A2965 RMK A01 T01620039  RH  044%=      5-min Rain = 0
KWE1 190219Z 25010KT 16/04 A2966 RMK A01 T01610039  RH  044%=      5-min Rain = 0
KWE1 190220Z 25009KT 16/04 A2966 RMK A01 T01600039  RH  044%=      5-min Rain = 0
KWE1 190221Z 25008KT 16/04 A2966 RMK A01 T01590040  RH  045%=      5-min Rain = 0
KWE1 190222Z 26009KT 16/04 A2966 RMK A01 T01580040  RH  045%=      5-min Rain = 0
KWE1 190223Z 26008KT 16/04 A2966 RMK A01 T01570040  RH  046%=      5-min Rain = 0
KWE1 190224Z 26009KT 16/04 A2966 RMK A01 T01570041  RH  046%=      5-min Rain = 0
KWE1 190225Z 26009KT 16/04 A2966 RMK A01 T01560041  RH  046%=      5-min Rain = 0
KWE1 190226Z 27007KT 16/04 A2966 RMK A01 T01560041  RH  046%=      5-min Rain = 0
KWE1 190227Z 26007KT 15/04 A2966 RMK A01 T01540040  RH  046%=      5-min Rain = 0
KWE1 190228Z 27007KT 15/04 A2966 RMK A01 T01530039  RH  046%=      5-min Rain = 0
KWE1 190229Z 27007KT 15/04 A2966 RMK A01 T01520039  RH  047%=      5-min Rain = 0
KWE1 190230Z 27007KT 15/04 A2966 RMK A01 T01520039  RH  047%=      5-min Rain = 0
KWE1 190231Z 27008KT 15/04 A2966 RMK A01 T01520038  RH  047%=      5-min Rain = 0
KWE1 190232Z 26007KT 15/04 A2966 RMK A01 T01510038  RH  047%=      5-min Rain = 0
KWE1 190233Z 25009KT 15/04 A2966 RMK A01 T01510036  RH  046%=      5-min Rain = 0
KWE1 190234Z 25009KT 15/04 A2967 RMK A01 T01520036  RH  046%=      5-min Rain = 0
KWE1 190235Z 25010KT 15/04 A2967 RMK A01 T01520035  RH  045%=      5-min Rain = 0
KWE1 190236Z 25009KT 15/03 A2967 RMK A01 T01520034  RH  045%=      5-min Rain = 0
KWE1 190237Z 25011KT 15/03 A2967 RMK A01 T01530033  RH  045%=      5-min Rain = 0
KWE1 190238Z 25010KT 15/03 A2967 RMK A01 T01530033  RH  044%=      5-min Rain = 0
KWE1 190239Z 26011KT 15/03 A2967 RMK A01 T01530032  RH  044%=      5-min Rain = 0
KWE1 190240Z 26010KT 15/03 A2968 RMK A01 T01530031  RH  044%=      5-min Rain = 0
KWE1 190241Z 30012G17KT 15/03 A2969 RMK A01 T01530029  RH  043%=      5-min Rain = 0
KWE1 190242Z 34020G25KT 15/03 A2971 RMK A01 T01520032  RH  045%=      5-min Rain = 0
KWE1 190243Z 34022G29KT 14/03 A2971 RMK A01 T01400026  RH  046%=      5-min Rain = 0
KWE1 190244Z 34024KT 13/02 A2972 RMK A01 T01270020  RH  048%=      5-min Rain = 0
KWE1 190245Z 34024G29KT 12/02 A2972 RMK A01 T01170019  RH  051%=      5-min Rain = 0
KWE1 190246Z 34028G34KT 11/02 A2972 RMK A01 T01110017  RH  052%=      5-min Rain = 0
KWE1 190247Z 35024G34KT 11/02 A2972 RMK A01 T01070016  RH  053%=      5-min Rain = 0
KWE1 190248Z 35026KT 10/02 A2972 RMK A01 T01030016  RH  055%=      5-min Rain = 0
KWE1 190249Z 35028KT 10/02 A2972 RMK A01 T01010015  RH  055%=      5-min Rain = 0
KWE1 190250Z 35027G32KT 10/02 A2973 RMK A01 T01000015  RH  055%=      5-min Rain = 0
KWE1 190251Z 35027KT 10/02 A2973 RMK A01 T00990015  RH  056%=      5-min Rain = 0
KWE1 190252Z 35029G34KT 10/02 A2973 RMK A01 T00980015  RH  056%=      5-min Rain = 0
KWE1 190253Z 35027KT 10/02 A2973 RMK A01 T00970015  RH  057%=      5-min Rain = 0
KWE1 190254Z 35026G31KT 10/02 A2973 RMK A01 T00960016  RH  057%=      5-min Rain = 0
KWE1 190255Z 35025KT 10/02 A2974 RMK A01 T00950016  RH  058%=      5-min Rain = 0
KWE1 190256Z 35024KT 09/02 A2974 RMK A01 T00940016  RH  058%=      5-min Rain = 0
KWE1 190257Z 34023G28KT 09/02 A2974 RMK A01 T00940016  RH  058%=      5-min Rain = 0
KWE1 190258Z 34020KT 09/02 A2975 RMK A01 T00930017  RH  059%=      5-min Rain = 0
KWE1 190259Z 34018G24KT 09/02 A2975 RMK A01 T00920018  RH  060%=      5-min Rain = 0
KWE1 190300Z 33020G26KT 09/02 A2975 RMK A01 T00910019  RH  061%=      5-min Rain = 0
KWE1 190301Z 33021G27KT 09/02 A2975 RMK A01 T00890017  RH  061%=      5-min Rain = 0
KWE1 190302Z 34023KT 09/02 A2976 RMK A01 T00880017  RH  061%=      5-min Rain = 0
KWE1 190303Z 34022G28KT 09/02 A2976 RMK A01 T00870016  RH  061%=      5-min Rain = 0
KWE1 190304Z 34019G25KT 09/02 A2976 RMK A01 T00860018  RH  062%=      5-min Rain = 0
KWE1 190305Z 34023G29KT 09/02 A2976 RMK A01 T00860018  RH  062%=      5-min Rain = 0
KWE1 190306Z 34025G32KT 09/02 A2976 RMK A01 T00850018  RH  063%=      5-min Rain = 0
KWE1 190307Z 34026KT 09/02 A2976 RMK A01 T00850019  RH  063%=      5-min Rain = 0
KWE1 190308Z 34023KT 08/02 A2976 RMK A01 T00840019  RH  063%=      5-min Rain = 0
KWE1 190309Z 34023G29KT 08/02 A2976 RMK A01 T00840019  RH  064%=      5-min Rain = 0
KWE1 190310Z 34022KT 08/02 A2976 RMK A01 T00830019  RH  064%=      5-min Rain = 0
KWE1 190311Z 34021G29KT 08/02 A2976 RMK A01 T00830019  RH  064%=      5-min Rain = 0
KWE1 190312Z 34022G28KT 08/02 A2976 RMK A01 T00830019  RH  064%=      5-min Rain = 0
KWE1 190313Z 34020G26KT 08/02 A2976 RMK A01 T00830019  RH  064%=      5-min Rain = 0
KWE1 190314Z 34026KT 08/02 A2976 RMK A01 T00820019  RH  065%=      5-min Rain = 0
KWE1 190315Z 34025KT 08/02 A2976 RMK A01 T00820019  RH  064%=      5-min Rain = 0
KWE1 190316Z 34027KT 08/02 A2976 RMK A01 T00810018  RH  064%=      5-min Rain = 0
KWE1 190317Z 34030KT 08/02 A2976 RMK A01 T00810019  RH  065%=      5-min Rain = 0
KWE1 190318Z 35029KT 08/02 A2976 RMK A01 T00810019  RH  065%=      5-min Rain = 0
KWE1 190319Z 34028KT 08/02 A2976 RMK A01 T00800019  RH  065%=      5-min Rain = 0
KWE1 190320Z 34024G29KT 08/02 A2976 RMK A01 T00800019  RH  065%=      5-min Rain = 0
KWE1 190321Z 34025KT 08/02 A2976 RMK A01 T00800019  RH  066%=      5-min Rain = 0
KWE1 190322Z 34024KT 08/02 A2976 RMK A01 T00790019  RH  065%=      5-min Rain = 0
KWE1 190323Z 34024G29KT 08/02 A2977 RMK A01 T00790019  RH  066%=      5-min Rain = 0
KWE1 190324Z 34023KT 08/02 A2977 RMK A01 T00790019  RH  066%=      5-min Rain = 0
KWE1 190325Z 34023KT 08/02 A2977 RMK A01 T00790019  RH  066%=      5-min Rain = 0
KWE1 190326Z 34021KT 08/02 A2977 RMK A01 T00780019  RH  066%=      5-min Rain = 0
KWE1 190327Z 33021G27KT 08/02 A2978 RMK A01 T00780020  RH  067%=      5-min Rain = 0
KWE1 190328Z 34019G26KT 08/02 A2978 RMK A01 T00780020  RH  067%=      5-min Rain = 0
KWE1 190329Z 33017G22KT 08/02 A2978 RMK A01 T00770020  RH  067%=      5-min Rain = 0
KWE1 190330Z 33018KT 08/02 A2978 RMK A01 T00770021  RH  067%=      5-min Rain = 0
KWE1 190331Z 33020KT 08/02 A2978 RMK A01 T00760020  RH  067%=      5-min Rain = 0
KWE1 190332Z 33014G21KT 08/02 A2978 RMK A01 T00770020  RH  067%=      5-min Rain = 0
KWE1 190333Z 33019KT 08/02 A2978 RMK A01 T00760020  RH  068%=      5-min Rain = 0
KWE1 190334Z 33019G25KT 08/02 A2979 RMK A01 T00750019  RH  068%=      5-min Rain = 0
KWE1 190335Z 33020G28KT 08/02 A2979 RMK A01 T00760019  RH  067%=      5-min Rain = 0
KWE1 190336Z 33020G27KT 08/02 A2979 RMK A01 T00750019  RH  067%=      5-min Rain = 0
KWE1 190337Z 33023KT 08/02 A2978 RMK A01 T00750018  RH  067%=      5-min Rain = 0
KWE1 190338Z 33022KT 08/02 A2979 RMK A01 T00750018  RH  067%=      5-min Rain = 0
KWE1 190339Z 33022KT 07/02 A2979 RMK A01 T00740018  RH  068%=      5-min Rain = 0
KWE1 190340Z 33022G27KT 08/02 A2979 RMK A01 T00750019  RH  068%=      5-min Rain = 0
KWE1 190341Z 33020KT 07/02 A2978 RMK A01 T00740019  RH  068%=      5-min Rain = 0
KWE1 190342Z 33018G24KT 07/02 A2979 RMK A01 T00740019  RH  068%=      5-min Rain = 0
KWE1 190343Z 34021KT 07/02 A2979 RMK A01 T00730019  RH  068%=      5-min Rain = 0
KWE1 190344Z 34020G27KT 07/02 A2978 RMK A01 T00730019  RH  068%=      5-min Rain = 0
KWE1 190345Z 34021G27KT 07/02 A2978 RMK A01 T00730019  RH  069%=      5-min Rain = 0
KWE1 190346Z 33019KT 07/02 A2978 RMK A01 T00730019  RH  069%=      5-min Rain = 0
KWE1 190347Z 33018G25KT 07/02 A2978 RMK A01 T00720020  RH  069%=      5-min Rain = 0
KWE1 190348Z 34019G27KT 07/02 A2978 RMK A01 T00720021  RH  070%=      5-min Rain = 0
KWE1 190349Z 34020G26KT 07/02 A2978 RMK A01 T00720021  RH  070%=      5-min Rain = 0
KWE1 190350Z 34016G24KT 07/02 A2979 RMK A01 T00720021  RH  070%=      5-min Rain = 0
KWE1 190351Z 33018G23KT 07/02 A2979 RMK A01 T00720021  RH  070%=      5-min Rain = 0
KWE1 190352Z 33020G25KT 07/02 A2979 RMK A01 T00720022  RH  070%=      5-min Rain = 0
KWE1 190353Z 33024G31KT 07/02 A2979 RMK A01 T00720021  RH  070%=      5-min Rain = 0
KWE1 190354Z 33017KT 07/02 A2979 RMK A01 T00720021  RH  070%=      5-min Rain = 0
KWE1 190355Z 33018G25KT 07/02 A2979 RMK A01 T00720022  RH  070%=      5-min Rain = 0
KWE1 190356Z 33018G24KT 07/02 A2979 RMK A01 T00720022  RH  070%=      5-min Rain = 0
KWE1 190357Z 33020G25KT 07/02 A2979 RMK A01 T00720022  RH  070%=      5-min Rain = 0
KWE1 190358Z 33018G24KT 07/02 A2979 RMK A01 T00730023  RH  071%=      5-min Rain = 0
KWE1 190359Z 34020G28KT 07/02 A2979 RMK A01 T00730023  RH  071%=      5-min Rain = 0
KWE1 190400Z 34021G27KT 07/02 A2979 RMK A01 T00720022  RH  070%=      5-min Rain = 0
KWE1 190401Z 33020G25KT 07/02 A2979 RMK A01 T00730023  RH  070%=      5-min Rain = 0
KWE1 190402Z 33018G26KT 07/02 A298 RMK A01 T00730023  RH  070%=      5-min Rain = 0
KWE1 190403Z 33018KT 07/02 A298 RMK A01 T00730023  RH  070%=      5-min Rain = 0
KWE1 190404Z 33022G27KT 07/02 A298 RMK A01 T00740024  RH  071%=      5-min Rain = 0
KWE1 190405Z 32021KT 07/02 A2981 RMK A01 T00740024  RH  070%=      5-min Rain = 0
KWE1 190406Z 33023G29KT 08/02 A2981 RMK A01 T00750024  RH  070%=      5-min Rain = 0
KWE1 190407Z 33016G23KT 08/02 A2981 RMK A01 T00750024  RH  070%=      5-min Rain = 0
KWE1 190408Z 32021KT 08/02 A2981 RMK A01 T00750024  RH  070%=      5-min Rain = 0
KWE1 190409Z 33019G26KT 08/02 A2981 RMK A01 T00750024  RH  070%=      5-min Rain = 0
KWE1 190410Z 32018G27KT 08/02 A2981 RMK A01 T00750024  RH  070%=      5-min Rain = 0
KWE1 190411Z 33020G26KT 08/02 A2981 RMK A01 T00750024  RH  070%=      5-min Rain = 0
KWE1 190412Z 32018G25KT 08/02 A2982 RMK A01 T00750024  RH  070%=      5-min Rain = 0
KWE1 190413Z 32024G30KT 08/02 A2982 RMK A01 T00750024  RH  070%=      5-min Rain = 0
KWE1 190414Z 33023G31KT 08/02 A2982 RMK A01 T00750024  RH  070%=      5-min Rain = 0
KWE1 190415Z 33022G28KT 08/02 A2982 RMK A01 T00750023  RH  070%=      5-min Rain = 0
KWE1 190416Z 33020KT 08/02 A2982 RMK A01 T00750024  RH  070%=      5-min Rain = 0
KWE1 190417Z 33018G27KT 08/02 A2982 RMK A01 T00750024  RH  070%=      5-min Rain = 0
KWE1 190418Z 33019G26KT 08/03 A2982 RMK A01 T00750025  RH  071%=      5-min Rain = 0
KWE1 190419Z 32023G30KT 08/02 A2982 RMK A01 T00750024  RH  070%=      5-min Rain = 0
KWE1 190420Z 33023G30KT 07/02 A2983 RMK A01 T00740023  RH  070%=      5-min Rain = 0
KWE1 190421Z 33027G34KT 07/02 A2983 RMK A01 T00740022  RH  070%=      5-min Rain = 0
KWE1 190422Z 33023G32KT 07/02 A2983 RMK A01 T00740022  RH  070%=      5-min Rain = 0
KWE1 190423Z 33028G35KT 07/02 A2983 RMK A01 T00730022  RH  070%=      5-min Rain = 0
KWE1 190424Z 34026G34KT 07/02 A2983 RMK A01 T00730021  RH  070%=      5-min Rain = 0
KWE1 190425Z 33026G34KT 07/02 A2983 RMK A01 T00730021  RH  070%=      5-min Rain = 0
KWE1 190426Z 33023G30KT 07/02 A2983 RMK A01 T00720021  RH  070%=      5-min Rain = 0
KWE1 190427Z 33027G34KT 07/02 A2983 RMK A01 T00730022  RH  070%=      5-min Rain = 0
KWE1 190428Z 33024G31KT 07/02 A2983 RMK A01 T00720021  RH  070%=      5-min Rain = 0
KWE1 190429Z 34024G30KT 07/02 A2983 RMK A01 T00720021  RH  070%=      5-min Rain = 0
KWE1 190430Z 34020KT 07/02 A2984 RMK A01 T00720021  RH  070%=      5-min Rain = 0
KWE1 190431Z 33020G26KT 07/02 A2984 RMK A01 T00720022  RH  070%=      5-min Rain = 0
KWE1 190432Z 33018G26KT 07/02 A2984 RMK A01 T00720022  RH  071%=      5-min Rain = 0
KWE1 190433Z 34025G31KT 07/02 A2984 RMK A01 T00720022  RH  071%=      5-min Rain = 0
KWE1 190434Z 34028G34KT 07/02 A2984 RMK A01 T00720021  RH  070%=      5-min Rain = 0
KWE1 190435Z 34025G30KT 07/02 A2984 RMK A01 T00720020  RH  070%=      5-min Rain = 0
KWE1 190436Z 33024G33KT 07/02 A2984 RMK A01 T00720021  RH  070%=      5-min Rain = 0
KWE1 190437Z 33025G31KT 07/02 A2984 RMK A01 T00720020  RH  070%=      5-min Rain = 0
KWE1 190438Z 34027KT 07/02 A2984 RMK A01 T00720020  RH  069%=      5-min Rain = 0
KWE1 190439Z 34023KT 07/02 A2985 RMK A01 T00720020  RH  069%=      5-min Rain = 0
KWE1 190440Z 34023KT 07/02 A2985 RMK A01 T00720020  RH  070%=      5-min Rain = 0
KWE1 190441Z 34022G29KT 07/02 A2985 RMK A01 T00720021  RH  070%=      5-min Rain = 0
KWE1 190442Z 34022G28KT 07/02 A2984 RMK A01 T00720020  RH  070%=      5-min Rain = 0
KWE1 190443Z 33019KT 07/02 A2985 RMK A01 T00720020  RH  070%=      5-min Rain = 0
KWE1 190444Z 34020G27KT 07/02 A2984 RMK A01 T00720021  RH  070%=      5-min Rain = 0
KWE1 190445Z 33024G29KT 07/02 A2984 RMK A01 T00710019  RH  069%=      5-min Rain = 0
KWE1 190446Z 33025G34KT 07/02 A2984 RMK A01 T00710018  RH  069%=      5-min Rain = 0
KWE1 190447Z 33023G31KT 07/02 A2984 RMK A01 T00700017  RH  069%=      5-min Rain = 0
KWE1 190448Z 34028G34KT 07/02 A2984 RMK A01 T00700017  RH  069%=      5-min Rain = 0
KWE1 190449Z 34026G32KT 07/02 A2985 RMK A01 T00690017  RH  069%=      5-min Rain = 0
KWE1 190450Z 34023G29KT 07/02 A2985 RMK A01 T00700017  RH  069%=      5-min Rain = 0
KWE1 190451Z 34026G32KT 07/02 A2985 RMK A01 T00690017  RH  069%=      5-min Rain = 0
KWE1 190452Z 34026KT 07/02 A2985 RMK A01 T00690016  RH  069%=      5-min Rain = 0
KWE1 190453Z 34029KT 07/02 A2985 RMK A01 T00680016  RH  069%=      5-min Rain = 0
KWE1 190454Z 34029G35KT 07/02 A2986 RMK A01 T00680015  RH  069%=      5-min Rain = 0
KWE1 190455Z 34023G29KT 07/02 A2986 RMK A01 T00680015  RH  069%=      5-min Rain = 0
KWE1 190456Z 34022G27KT 07/02 A2986 RMK A01 T00680016  RH  070%=      5-min Rain = 0
KWE1 190457Z 34026G31KT 07/02 A2986 RMK A01 T00680016  RH  069%=      5-min Rain = 0
KWE1 190458Z 34028G36KT 07/01 A2986 RMK A01 T00670014  RH  069%=      5-min Rain = 0
KWE1 190459Z 33027G32KT 07/01 A2986 RMK A01 T00670013  RH  068%=      5-min Rain = 0
KWE1 190500Z 33027G36KT 07/01 A2986 RMK A01 T00670013  RH  069%=      5-min Rain = 0
KWE1 190501Z 34029G34KT 07/01 A2987 RMK A01 T00660012  RH  068%=      5-min Rain = 0
KWE1 190502Z 34029KT 07/01 A2987 RMK A01 T00660012  RH  068%=      5-min Rain = 0
KWE1 190503Z 33024G30KT 07/01 A2987 RMK A01 T00660012  RH  068%=      5-min Rain = 0
KWE1 190504Z 33024G32KT 07/01 A2987 RMK A01 T00660012  RH  068%=      5-min Rain = 0
KWE1 190505Z 34027G32KT 07/01 A2987 RMK A01 T00660012  RH  068%=      5-min Rain = 0
KWE1 190506Z 33023G30KT 07/01 A2988 RMK A01 T00660011  RH  068%=      5-min Rain = 0
KWE1 190507Z 33021G30KT 07/01 A2988 RMK A01 T00660012  RH  069%=      5-min Rain = 0
KWE1 190508Z 34024G32KT 07/01 A2987 RMK A01 T00660012  RH  069%=      5-min Rain = 0
KWE1 190509Z 34022G28KT 07/01 A2988 RMK A01 T00660012  RH  069%=      5-min Rain = 0
KWE1 190510Z 34023G29KT 07/01 A2988 RMK A01 T00660012  RH  069%=      5-min Rain = 0
KWE1 190511Z 34025G32KT 07/01 A2988 RMK A01 T00650012  RH  069%=      5-min Rain = 0
KWE1 190512Z 34029G36KT 07/01 A2988 RMK A01 T00650012  RH  069%=      5-min Rain = 0
KWE1 190513Z 34033KT 07/01 A2988 RMK A01 T00650010  RH  068%=      5-min Rain = 0
KWE1 190514Z 34027KT 07/01 A2989 RMK A01 T00650010  RH  068%=      5-min Rain = 0
KWE1 190515Z 34026G34KT 07/01 A2989 RMK A01 T00650010  RH  068%=      5-min Rain = 0
KWE1 190516Z 34028KT 07/01 A2989 RMK A01 T00650011  RH  068%=      5-min Rain = 0
KWE1 190517Z 34028KT 06/01 A2989 RMK A01 T00640010  RH  068%=      5-min Rain = 0
KWE1 190518Z 34025G30KT 06/01 A2989 RMK A01 T00640010  RH  068%=      5-min Rain = 0
KWE1 190519Z 34025KT 06/01 A2989 RMK A01 T00640010  RH  068%=      5-min Rain = 0
KWE1 190520Z 34027G34KT 06/01 A2989 RMK A01 T00640010  RH  068%=      5-min Rain = 0
KWE1 190521Z 34025G30KT 06/01 A299 RMK A01 T00640010  RH  068%=      5-min Rain = 0
KWE1 190522Z 35027G32KT 06/01 A299 RMK A01 T00640009  RH  068%=      5-min Rain = 0
KWE1 190523Z 34026KT 06/01 A299 RMK A01 T00640009  RH  068%=      5-min Rain = 0
KWE1 190524Z 34023G29KT 06/01 A299 RMK A01 T00640010  RH  068%=      5-min Rain = 0
KWE1 190525Z 34020G26KT 06/01 A299 RMK A01 T00640010  RH  068%=      5-min Rain = 0
KWE1 190526Z 34023G29KT 06/01 A299 RMK A01 T00640011  RH  069%=      5-min Rain = 0
KWE1 190527Z 34025G31KT 06/01 A299 RMK A01 T00640010  RH  068%=      5-min Rain = 0
KWE1 190528Z 34030G35KT 06/01 A2991 RMK A01 T00640009  RH  068%=      5-min Rain = 0
KWE1 190529Z 34028KT 06/01 A2991 RMK A01 T00630008  RH  068%=      5-min Rain = 0
KWE1 190530Z 34026KT 06/01 A2991 RMK A01 T00640008  RH  068%=      5-min Rain = 0
KWE1 190531Z 34026KT 06/01 A2991 RMK A01 T00640008  RH  068%=      5-min Rain = 0
KWE1 190532Z 34023KT 06/01 A2991 RMK A01 T00640009  RH  068%=      5-min Rain = 0
KWE1 190533Z 34025G32KT 06/01 A2991 RMK A01 T00630009  RH  068%=      5-min Rain = 0
KWE1 190534Z 34023KT 06/01 A2991 RMK A01 T00630009  RH  068%=      5-min Rain = 0
KWE1 190535Z 34023KT 06/01 A2991 RMK A01 T00630008  RH  068%=      5-min Rain = 0
KWE1 190536Z 33023G33KT 06/01 A2991 RMK A01 T00640008  RH  068%=      5-min Rain = 0
KWE1 190537Z 34024KT 06/01 A2991 RMK A01 T00640008  RH  068%=      5-min Rain = 0
KWE1 190538Z 35024KT 06/01 A2992 RMK A01 T00630008  RH  068%=      5-min Rain = 0
KWE1 190539Z 35025G30KT 06/01 A2992 RMK A01 T00630008  RH  068%=      5-min Rain = 0
KWE1 190540Z 34023KT 06/01 A2992 RMK A01 T00630008  RH  068%=      5-min Rain = 0
KWE1 190541Z 34026G31KT 06/01 A2992 RMK A01 T00630008  RH  068%=      5-min Rain = 0
KWE1 190542Z 33022G27KT 06/01 A2992 RMK A01 T00630007  RH  068%=      5-min Rain = 0
KWE1 190543Z 34025KT 06/01 A2992 RMK A01 T00630008  RH  068%=      5-min Rain = 0
KWE1 190544Z 34022KT 06/01 A2992 RMK A01 T00620007  RH  068%=      5-min Rain = 0
KWE1 190545Z 34024G29KT 06/01 A2992 RMK A01 T00620007  RH  068%=      5-min Rain = 0
KWE1 190546Z 33027KT 06/01 A2992 RMK A01 T00620006  RH  067%=      5-min Rain = 0
KWE1 190547Z 34024KT 06/01 A2992 RMK A01 T00610005  RH  067%=      5-min Rain = 0
KWE1 190548Z 34026G31KT 06/01 A2993 RMK A01 T00610005  RH  067%=      5-min Rain = 0
KWE1 190549Z 33020G25KT 06/01 A2993 RMK A01 T00610005  RH  067%=      5-min Rain = 0
KWE1 190550Z 33025G31KT 06/01 A2993 RMK A01 T00610005  RH  067%=      5-min Rain = 0
KWE1 190551Z 34026KT 06/01 A2993 RMK A01 T00610005  RH  067%=      5-min Rain = 0
KWE1 190552Z 34027G33KT 06/00 A2993 RMK A01 T00600004  RH  067%=      5-min Rain = 0
KWE1 190553Z 34026G33KT 06/00 A2993 RMK A01 T00600003  RH  067%=      5-min Rain = 0
KWE1 190554Z 34026G34KT 06/00 A2993 RMK A01 T00600003  RH  067%=      5-min Rain = 0
KWE1 190555Z 34027G34KT 06/00 A2993 RMK A01 T00590003  RH  067%=      5-min Rain = 0
KWE1 190556Z 34029G34KT 06/00 A2994 RMK A01 T00590003  RH  067%=      5-min Rain = 0
KWE1 190557Z 34024G29KT 06/00 A2994 RMK A01 T00590003  RH  067%=      5-min Rain = 0
KWE1 190558Z 35024G30KT 06/00 A2994 RMK A01 T00590003  RH  068%=      5-min Rain = 0
KWE1 190559Z 34027G34KT 06/00 A2994 RMK A01 T00580003  RH  068%=      5-min Rain = 0

Page generated in 0.0805 seconds.